<?xml version="1.0" encoding="UTF-8" standalone="no" ?>
<gpx xmlns="http://www.topografix.com/GPX/1/1" xmlns:xsi="http://www.w3.org/2001/XMLSchema-instance" xsi:schemaLocation="http://www.topografix.com/GPX/1/1 http://www.topografix.com/GPX/1/1/gpx.xsd" version="1.1" creator="VisuGPX - https://www.visugpx.com">
  <metadata>
    <name>sauxillanges-picondry  27/850D+</name>
    <desc><![CDATA[grp_trc:]]></desc>
  </metadata>
  <trk>
    <name><![CDATA[saux-picondry ]]></name>
    <cmt><![CDATA[27/845D+]]></cmt>
    <desc><![CDATA[comment ...]]></desc>
    <trkseg>
      <trkpt lat="45.55" lon="3.37348">
        <ele>442</ele>
        <time>2025-01-29T07:40:38Z</time>
      </trkpt>
      <trkpt lat="45.55" lon="3.37348">
        <ele>442</ele>
        <time>2025-01-29T07:40:40Z</time>
      </trkpt>
      <trkpt lat="45.54998" lon="3.37352">
        <ele>443</ele>
        <time>2025-01-29T07:40:44Z</time>
      </trkpt>
      <trkpt lat="45.54997" lon="3.37352">
        <ele>445</ele>
        <time>2025-01-29T07:40:54Z</time>
      </trkpt>
      <trkpt lat="45.54989" lon="3.37316">
        <ele>450</ele>
        <time>2025-01-29T07:41:04Z</time>
      </trkpt>
      <trkpt lat="45.54984" lon="3.37304">
        <ele>451</ele>
        <time>2025-01-29T07:41:08Z</time>
      </trkpt>
      <trkpt lat="45.54982" lon="3.37305">
        <ele>452</ele>
        <time>2025-01-29T07:41:18Z</time>
      </trkpt>
      <trkpt lat="45.54982" lon="3.373">
        <ele>451</ele>
        <time>2025-01-29T07:41:48Z</time>
      </trkpt>
      <trkpt lat="45.54973" lon="3.37281">
        <ele>449</ele>
        <time>2025-01-29T07:41:54Z</time>
      </trkpt>
      <trkpt lat="45.54959" lon="3.37221">
        <ele>447</ele>
        <time>2025-01-29T07:42:08Z</time>
      </trkpt>
      <trkpt lat="45.54958" lon="3.37214">
        <ele>447</ele>
        <time>2025-01-29T07:42:10Z</time>
      </trkpt>
      <trkpt lat="45.54959" lon="3.37208">
        <ele>448</ele>
        <time>2025-01-29T07:42:12Z</time>
      </trkpt>
      <trkpt lat="45.54961" lon="3.37199">
        <ele>447</ele>
        <time>2025-01-29T07:42:14Z</time>
      </trkpt>
      <trkpt lat="45.54956" lon="3.37172">
        <ele>445</ele>
        <time>2025-01-29T07:42:20Z</time>
      </trkpt>
      <trkpt lat="45.54955" lon="3.37164">
        <ele>446</ele>
        <time>2025-01-29T07:42:22Z</time>
      </trkpt>
      <trkpt lat="45.54958" lon="3.37158">
        <ele>446</ele>
        <time>2025-01-29T07:42:24Z</time>
      </trkpt>
      <trkpt lat="45.54961" lon="3.37156">
        <ele>445</ele>
        <time>2025-01-29T07:42:26Z</time>
      </trkpt>
      <trkpt lat="45.54965" lon="3.37146">
        <ele>444</ele>
        <time>2025-01-29T07:42:30Z</time>
      </trkpt>
      <trkpt lat="45.54964" lon="3.37143">
        <ele>444</ele>
        <time>2025-01-29T07:42:32Z</time>
      </trkpt>
      <trkpt lat="45.54961" lon="3.37139">
        <ele>444</ele>
        <time>2025-01-29T07:42:34Z</time>
      </trkpt>
      <trkpt lat="45.54955" lon="3.37128">
        <ele>444</ele>
        <time>2025-01-29T07:42:36Z</time>
      </trkpt>
      <trkpt lat="45.54952" lon="3.3712">
        <ele>445</ele>
        <time>2025-01-29T07:42:38Z</time>
      </trkpt>
      <trkpt lat="45.54951" lon="3.37113">
        <ele>445</ele>
        <time>2025-01-29T07:42:40Z</time>
      </trkpt>
      <trkpt lat="45.5495" lon="3.37105">
        <ele>445</ele>
        <time>2025-01-29T07:42:42Z</time>
      </trkpt>
      <trkpt lat="45.54946" lon="3.3709">
        <ele>446</ele>
        <time>2025-01-29T07:42:46Z</time>
      </trkpt>
      <trkpt lat="45.54943" lon="3.37084">
        <ele>447</ele>
        <time>2025-01-29T07:42:48Z</time>
      </trkpt>
      <trkpt lat="45.5494" lon="3.37078">
        <ele>449</ele>
        <time>2025-01-29T07:42:50Z</time>
      </trkpt>
      <trkpt lat="45.54925" lon="3.37075">
        <ele>448</ele>
        <time>2025-01-29T07:42:54Z</time>
      </trkpt>
      <trkpt lat="45.54913" lon="3.37065">
        <ele>445</ele>
        <time>2025-01-29T07:42:58Z</time>
      </trkpt>
      <trkpt lat="45.5489" lon="3.37067">
        <ele>442</ele>
        <time>2025-01-29T07:43:04Z</time>
      </trkpt>
      <trkpt lat="45.54845" lon="3.37072">
        <ele>440</ele>
        <time>2025-01-29T07:43:16Z</time>
      </trkpt>
      <trkpt lat="45.54821" lon="3.3707">
        <ele>444</ele>
        <time>2025-01-29T07:43:24Z</time>
      </trkpt>
      <trkpt lat="45.54817" lon="3.37071">
        <ele>445</ele>
        <time>2025-01-29T07:43:26Z</time>
      </trkpt>
      <trkpt lat="45.54793" lon="3.37188">
        <ele>443</ele>
        <time>2025-01-29T07:43:46Z</time>
      </trkpt>
      <trkpt lat="45.5479" lon="3.37254">
        <ele>443</ele>
        <time>2025-01-29T07:43:56Z</time>
      </trkpt>
      <trkpt lat="45.54787" lon="3.37265">
        <ele>444</ele>
        <time>2025-01-29T07:43:58Z</time>
      </trkpt>
      <trkpt lat="45.54782" lon="3.37275">
        <ele>445</ele>
        <time>2025-01-29T07:44:00Z</time>
      </trkpt>
      <trkpt lat="45.54767" lon="3.37288">
        <ele>446</ele>
        <time>2025-01-29T07:44:04Z</time>
      </trkpt>
      <trkpt lat="45.54723" lon="3.37307">
        <ele>451</ele>
        <time>2025-01-29T07:44:16Z</time>
      </trkpt>
      <trkpt lat="45.54679" lon="3.37346">
        <ele>465</ele>
        <time>2025-01-29T07:44:38Z</time>
      </trkpt>
      <trkpt lat="45.54633" lon="3.37369">
        <ele>470</ele>
        <time>2025-01-29T07:44:54Z</time>
      </trkpt>
      <trkpt lat="45.54617" lon="3.37382">
        <ele>472</ele>
        <time>2025-01-29T07:45:00Z</time>
      </trkpt>
      <trkpt lat="45.5454" lon="3.37419">
        <ele>491</ele>
        <time>2025-01-29T07:45:30Z</time>
      </trkpt>
      <trkpt lat="45.54463" lon="3.37424">
        <ele>497</ele>
        <time>2025-01-29T07:46:00Z</time>
      </trkpt>
      <trkpt lat="45.54457" lon="3.37425">
        <ele>498</ele>
        <time>2025-01-29T07:46:02Z</time>
      </trkpt>
      <trkpt lat="45.54447" lon="3.37429">
        <ele>502</ele>
        <time>2025-01-29T07:46:06Z</time>
      </trkpt>
      <trkpt lat="45.54432" lon="3.37437">
        <ele>507</ele>
        <time>2025-01-29T07:46:12Z</time>
      </trkpt>
      <trkpt lat="45.54396" lon="3.37455">
        <ele>513</ele>
        <time>2025-01-29T07:46:26Z</time>
      </trkpt>
      <trkpt lat="45.54376" lon="3.3747">
        <ele>515</ele>
        <time>2025-01-29T07:46:36Z</time>
      </trkpt>
      <trkpt lat="45.54363" lon="3.37478">
        <ele>518</ele>
        <time>2025-01-29T07:46:42Z</time>
      </trkpt>
      <trkpt lat="45.54358" lon="3.37481">
        <ele>518</ele>
        <time>2025-01-29T07:46:44Z</time>
      </trkpt>
      <trkpt lat="45.54342" lon="3.37491">
        <ele>522</ele>
        <time>2025-01-29T07:46:52Z</time>
      </trkpt>
      <trkpt lat="45.54275" lon="3.37522">
        <ele>534</ele>
        <time>2025-01-29T07:47:22Z</time>
      </trkpt>
      <trkpt lat="45.5427" lon="3.37526">
        <ele>535</ele>
        <time>2025-01-29T07:47:24Z</time>
      </trkpt>
      <trkpt lat="45.54259" lon="3.37536">
        <ele>537</ele>
        <time>2025-01-29T07:47:30Z</time>
      </trkpt>
      <trkpt lat="45.54238" lon="3.3755">
        <ele>543</ele>
        <time>2025-01-29T07:47:40Z</time>
      </trkpt>
      <trkpt lat="45.54224" lon="3.37551">
        <ele>545</ele>
        <time>2025-01-29T07:47:46Z</time>
      </trkpt>
      <trkpt lat="45.54205" lon="3.37559">
        <ele>548</ele>
        <time>2025-01-29T07:47:54Z</time>
      </trkpt>
      <trkpt lat="45.5419" lon="3.37571">
        <ele>552</ele>
        <time>2025-01-29T07:48:02Z</time>
      </trkpt>
      <trkpt lat="45.54176" lon="3.37588">
        <ele>556</ele>
        <time>2025-01-29T07:48:10Z</time>
      </trkpt>
      <trkpt lat="45.54164" lon="3.37596">
        <ele>559</ele>
        <time>2025-01-29T07:48:16Z</time>
      </trkpt>
      <trkpt lat="45.54159" lon="3.37598">
        <ele>560</ele>
        <time>2025-01-29T07:48:18Z</time>
      </trkpt>
      <trkpt lat="45.54151" lon="3.37602">
        <ele>559</ele>
        <time>2025-01-29T07:48:22Z</time>
      </trkpt>
      <trkpt lat="45.54142" lon="3.37607">
        <ele>559</ele>
        <time>2025-01-29T07:48:26Z</time>
      </trkpt>
      <trkpt lat="45.54102" lon="3.37634">
        <ele>570</ele>
        <time>2025-01-29T07:48:44Z</time>
      </trkpt>
      <trkpt lat="45.54099" lon="3.37639">
        <ele>571</ele>
        <time>2025-01-29T07:48:46Z</time>
      </trkpt>
      <trkpt lat="45.5407" lon="3.37671">
        <ele>577</ele>
        <time>2025-01-29T07:49:00Z</time>
      </trkpt>
      <trkpt lat="45.54066" lon="3.37676">
        <ele>577</ele>
        <time>2025-01-29T07:49:02Z</time>
      </trkpt>
      <trkpt lat="45.54037" lon="3.37708">
        <ele>582</ele>
        <time>2025-01-29T07:49:16Z</time>
      </trkpt>
      <trkpt lat="45.54024" lon="3.37721">
        <ele>585</ele>
        <time>2025-01-29T07:49:22Z</time>
      </trkpt>
      <trkpt lat="45.53987" lon="3.37778">
        <ele>586</ele>
        <time>2025-01-29T07:49:42Z</time>
      </trkpt>
      <trkpt lat="45.53984" lon="3.37783">
        <ele>586</ele>
        <time>2025-01-29T07:49:44Z</time>
      </trkpt>
      <trkpt lat="45.53964" lon="3.37814">
        <ele>584</ele>
        <time>2025-01-29T07:49:54Z</time>
      </trkpt>
      <trkpt lat="45.5396" lon="3.37819">
        <ele>585</ele>
        <time>2025-01-29T07:49:56Z</time>
      </trkpt>
      <trkpt lat="45.5396" lon="3.37823">
        <ele>586</ele>
        <time>2025-01-29T07:49:58Z</time>
      </trkpt>
      <trkpt lat="45.53962" lon="3.37827">
        <ele>586</ele>
        <time>2025-01-29T07:50:00Z</time>
      </trkpt>
      <trkpt lat="45.5398" lon="3.37814">
        <ele>588</ele>
        <time>2025-01-29T07:50:08Z</time>
      </trkpt>
      <trkpt lat="45.53989" lon="3.37805">
        <ele>589</ele>
        <time>2025-01-29T07:50:12Z</time>
      </trkpt>
      <trkpt lat="45.54003" lon="3.37796">
        <ele>591</ele>
        <time>2025-01-29T07:50:18Z</time>
      </trkpt>
      <trkpt lat="45.54033" lon="3.37775">
        <ele>591</ele>
        <time>2025-01-29T07:50:30Z</time>
      </trkpt>
      <trkpt lat="45.54039" lon="3.37773">
        <ele>592</ele>
        <time>2025-01-29T07:50:32Z</time>
      </trkpt>
      <trkpt lat="45.54056" lon="3.37771">
        <ele>594</ele>
        <time>2025-01-29T07:50:38Z</time>
      </trkpt>
      <trkpt lat="45.54068" lon="3.37765">
        <ele>597</ele>
        <time>2025-01-29T07:50:42Z</time>
      </trkpt>
      <trkpt lat="45.54081" lon="3.37765">
        <ele>599</ele>
        <time>2025-01-29T07:50:46Z</time>
      </trkpt>
      <trkpt lat="45.54147" lon="3.37795">
        <ele>603</ele>
        <time>2025-01-29T07:51:08Z</time>
      </trkpt>
      <trkpt lat="45.54162" lon="3.37808">
        <ele>604</ele>
        <time>2025-01-29T07:51:14Z</time>
      </trkpt>
      <trkpt lat="45.54166" lon="3.37813">
        <ele>604</ele>
        <time>2025-01-29T07:51:16Z</time>
      </trkpt>
      <trkpt lat="45.54174" lon="3.37829">
        <ele>603</ele>
        <time>2025-01-29T07:51:22Z</time>
      </trkpt>
      <trkpt lat="45.54175" lon="3.37841">
        <ele>605</ele>
        <time>2025-01-29T07:51:26Z</time>
      </trkpt>
      <trkpt lat="45.54175" lon="3.37845">
        <ele>606</ele>
        <time>2025-01-29T07:51:28Z</time>
      </trkpt>
      <trkpt lat="45.54174" lon="3.37851">
        <ele>607</ele>
        <time>2025-01-29T07:51:30Z</time>
      </trkpt>
      <trkpt lat="45.54174" lon="3.37856">
        <ele>608</ele>
        <time>2025-01-29T07:51:32Z</time>
      </trkpt>
      <trkpt lat="45.54163" lon="3.37859">
        <ele>612</ele>
        <time>2025-01-29T07:51:38Z</time>
      </trkpt>
      <trkpt lat="45.54156" lon="3.3786">
        <ele>614</ele>
        <time>2025-01-29T07:51:42Z</time>
      </trkpt>
      <trkpt lat="45.54142" lon="3.37862">
        <ele>617</ele>
        <time>2025-01-29T07:51:50Z</time>
      </trkpt>
      <trkpt lat="45.54138" lon="3.37861">
        <ele>617</ele>
        <time>2025-01-29T07:51:52Z</time>
      </trkpt>
      <trkpt lat="45.54134" lon="3.37862">
        <ele>618</ele>
        <time>2025-01-29T07:51:54Z</time>
      </trkpt>
      <trkpt lat="45.54124" lon="3.37867">
        <ele>618</ele>
        <time>2025-01-29T07:51:58Z</time>
      </trkpt>
      <trkpt lat="45.54105" lon="3.37865">
        <ele>616</ele>
        <time>2025-01-29T07:52:06Z</time>
      </trkpt>
      <trkpt lat="45.54101" lon="3.37867">
        <ele>616</ele>
        <time>2025-01-29T07:52:08Z</time>
      </trkpt>
      <trkpt lat="45.54097" lon="3.37872">
        <ele>616</ele>
        <time>2025-01-29T07:52:10Z</time>
      </trkpt>
      <trkpt lat="45.54097" lon="3.37881">
        <ele>617</ele>
        <time>2025-01-29T07:52:14Z</time>
      </trkpt>
      <trkpt lat="45.54097" lon="3.37887">
        <ele>618</ele>
        <time>2025-01-29T07:52:16Z</time>
      </trkpt>
      <trkpt lat="45.54095" lon="3.37893">
        <ele>619</ele>
        <time>2025-01-29T07:52:18Z</time>
      </trkpt>
      <trkpt lat="45.54082" lon="3.37905">
        <ele>621</ele>
        <time>2025-01-29T07:52:26Z</time>
      </trkpt>
      <trkpt lat="45.54077" lon="3.37912">
        <ele>623</ele>
        <time>2025-01-29T07:52:30Z</time>
      </trkpt>
      <trkpt lat="45.54048" lon="3.37931">
        <ele>626</ele>
        <time>2025-01-29T07:52:44Z</time>
      </trkpt>
      <trkpt lat="45.54039" lon="3.37941">
        <ele>628</ele>
        <time>2025-01-29T07:52:50Z</time>
      </trkpt>
      <trkpt lat="45.54037" lon="3.37942">
        <ele>628</ele>
        <time>2025-01-29T07:52:52Z</time>
      </trkpt>
      <trkpt lat="45.54036" lon="3.37944">
        <ele>629</ele>
        <time>2025-01-29T07:52:54Z</time>
      </trkpt>
      <trkpt lat="45.54035" lon="3.37953">
        <ele>629</ele>
        <time>2025-01-29T07:52:58Z</time>
      </trkpt>
      <trkpt lat="45.54033" lon="3.37975">
        <ele>634</ele>
        <time>2025-01-29T07:53:08Z</time>
      </trkpt>
      <trkpt lat="45.54032" lon="3.37984">
        <ele>635</ele>
        <time>2025-01-29T07:53:12Z</time>
      </trkpt>
      <trkpt lat="45.54033" lon="3.3799">
        <ele>636</ele>
        <time>2025-01-29T07:53:14Z</time>
      </trkpt>
      <trkpt lat="45.54032" lon="3.37995">
        <ele>637</ele>
        <time>2025-01-29T07:53:16Z</time>
      </trkpt>
      <trkpt lat="45.54028" lon="3.38007">
        <ele>640</ele>
        <time>2025-01-29T07:53:20Z</time>
      </trkpt>
      <trkpt lat="45.54022" lon="3.38017">
        <ele>642</ele>
        <time>2025-01-29T07:53:24Z</time>
      </trkpt>
      <trkpt lat="45.53973" lon="3.38074">
        <ele>640</ele>
        <time>2025-01-29T07:53:54Z</time>
      </trkpt>
      <trkpt lat="45.53967" lon="3.38082">
        <ele>639</ele>
        <time>2025-01-29T07:53:58Z</time>
      </trkpt>
      <trkpt lat="45.53965" lon="3.38086">
        <ele>639</ele>
        <time>2025-01-29T07:54:00Z</time>
      </trkpt>
      <trkpt lat="45.53964" lon="3.3809">
        <ele>639</ele>
        <time>2025-01-29T07:54:02Z</time>
      </trkpt>
      <trkpt lat="45.53965" lon="3.38096">
        <ele>640</ele>
        <time>2025-01-29T07:54:04Z</time>
      </trkpt>
      <trkpt lat="45.53967" lon="3.381">
        <ele>641</ele>
        <time>2025-01-29T07:54:06Z</time>
      </trkpt>
      <trkpt lat="45.5397" lon="3.38101">
        <ele>642</ele>
        <time>2025-01-29T07:54:08Z</time>
      </trkpt>
      <trkpt lat="45.53973" lon="3.381">
        <ele>643</ele>
        <time>2025-01-29T07:54:10Z</time>
      </trkpt>
      <trkpt lat="45.53975" lon="3.38099">
        <ele>644</ele>
        <time>2025-01-29T07:54:12Z</time>
      </trkpt>
      <trkpt lat="45.53982" lon="3.38096">
        <ele>647</ele>
        <time>2025-01-29T07:54:16Z</time>
      </trkpt>
      <trkpt lat="45.53986" lon="3.38094">
        <ele>648</ele>
        <time>2025-01-29T07:54:18Z</time>
      </trkpt>
      <trkpt lat="45.54013" lon="3.38082">
        <ele>650</ele>
        <time>2025-01-29T07:54:30Z</time>
      </trkpt>
      <trkpt lat="45.54023" lon="3.38074">
        <ele>649</ele>
        <time>2025-01-29T07:54:34Z</time>
      </trkpt>
      <trkpt lat="45.5403" lon="3.38069">
        <ele>649</ele>
        <time>2025-01-29T07:54:36Z</time>
      </trkpt>
      <trkpt lat="45.54034" lon="3.38072">
        <ele>650</ele>
        <time>2025-01-29T07:54:38Z</time>
      </trkpt>
      <trkpt lat="45.54048" lon="3.38101">
        <ele>653</ele>
        <time>2025-01-29T07:54:48Z</time>
      </trkpt>
      <trkpt lat="45.54051" lon="3.38113">
        <ele>653</ele>
        <time>2025-01-29T07:54:52Z</time>
      </trkpt>
      <trkpt lat="45.54055" lon="3.38123">
        <ele>651</ele>
        <time>2025-01-29T07:54:56Z</time>
      </trkpt>
      <trkpt lat="45.54056" lon="3.38128">
        <ele>651</ele>
        <time>2025-01-29T07:54:58Z</time>
      </trkpt>
      <trkpt lat="45.54055" lon="3.38132">
        <ele>652</ele>
        <time>2025-01-29T07:55:00Z</time>
      </trkpt>
      <trkpt lat="45.5405" lon="3.38141">
        <ele>653</ele>
        <time>2025-01-29T07:55:04Z</time>
      </trkpt>
      <trkpt lat="45.54049" lon="3.38145">
        <ele>654</ele>
        <time>2025-01-29T07:55:06Z</time>
      </trkpt>
      <trkpt lat="45.54052" lon="3.38154">
        <ele>656</ele>
        <time>2025-01-29T07:55:10Z</time>
      </trkpt>
      <trkpt lat="45.54054" lon="3.38158">
        <ele>656</ele>
        <time>2025-01-29T07:55:12Z</time>
      </trkpt>
      <trkpt lat="45.54073" lon="3.38167">
        <ele>655</ele>
        <time>2025-01-29T07:55:24Z</time>
      </trkpt>
      <trkpt lat="45.54075" lon="3.38169">
        <ele>655</ele>
        <time>2025-01-29T07:55:26Z</time>
      </trkpt>
      <trkpt lat="45.54078" lon="3.38167">
        <ele>654</ele>
        <time>2025-01-29T07:55:34Z</time>
      </trkpt>
      <trkpt lat="45.54076" lon="3.38161">
        <ele>654</ele>
        <time>2025-01-29T07:55:38Z</time>
      </trkpt>
      <trkpt lat="45.54074" lon="3.38158">
        <ele>654</ele>
        <time>2025-01-29T07:55:40Z</time>
      </trkpt>
      <trkpt lat="45.54071" lon="3.38156">
        <ele>654</ele>
        <time>2025-01-29T07:55:42Z</time>
      </trkpt>
      <trkpt lat="45.54056" lon="3.38133">
        <ele>656</ele>
        <time>2025-01-29T07:55:52Z</time>
      </trkpt>
      <trkpt lat="45.54055" lon="3.3813">
        <ele>656</ele>
        <time>2025-01-29T07:55:54Z</time>
      </trkpt>
      <trkpt lat="45.54052" lon="3.38117">
        <ele>654</ele>
        <time>2025-01-29T07:56:00Z</time>
      </trkpt>
      <trkpt lat="45.54041" lon="3.38086">
        <ele>654</ele>
        <time>2025-01-29T07:56:10Z</time>
      </trkpt>
      <trkpt lat="45.54037" lon="3.38081">
        <ele>654</ele>
        <time>2025-01-29T07:56:12Z</time>
      </trkpt>
      <trkpt lat="45.54035" lon="3.38074">
        <ele>654</ele>
        <time>2025-01-29T07:56:14Z</time>
      </trkpt>
      <trkpt lat="45.54033" lon="3.38068">
        <ele>653</ele>
        <time>2025-01-29T07:56:16Z</time>
      </trkpt>
      <trkpt lat="45.54034" lon="3.38062">
        <ele>652</ele>
        <time>2025-01-29T07:56:18Z</time>
      </trkpt>
      <trkpt lat="45.54036" lon="3.38058">
        <ele>652</ele>
        <time>2025-01-29T07:56:20Z</time>
      </trkpt>
      <trkpt lat="45.54036" lon="3.38052">
        <ele>651</ele>
        <time>2025-01-29T07:56:22Z</time>
      </trkpt>
      <trkpt lat="45.54036" lon="3.38043">
        <ele>650</ele>
        <time>2025-01-29T07:56:24Z</time>
      </trkpt>
      <trkpt lat="45.54039" lon="3.38033">
        <ele>647</ele>
        <time>2025-01-29T07:56:26Z</time>
      </trkpt>
      <trkpt lat="45.54037" lon="3.38027">
        <ele>644</ele>
        <time>2025-01-29T07:56:28Z</time>
      </trkpt>
      <trkpt lat="45.54032" lon="3.38026">
        <ele>641</ele>
        <time>2025-01-29T07:56:30Z</time>
      </trkpt>
      <trkpt lat="45.54026" lon="3.38026">
        <ele>639</ele>
        <time>2025-01-29T07:56:32Z</time>
      </trkpt>
      <trkpt lat="45.54022" lon="3.38025">
        <ele>638</ele>
        <time>2025-01-29T07:56:34Z</time>
      </trkpt>
      <trkpt lat="45.54022" lon="3.38022">
        <ele>637</ele>
        <time>2025-01-29T07:56:36Z</time>
      </trkpt>
      <trkpt lat="45.54028" lon="3.3801">
        <ele>636</ele>
        <time>2025-01-29T07:56:40Z</time>
      </trkpt>
      <trkpt lat="45.5403" lon="3.38004">
        <ele>635</ele>
        <time>2025-01-29T07:56:42Z</time>
      </trkpt>
      <trkpt lat="45.54032" lon="3.3798">
        <ele>631</ele>
        <time>2025-01-29T07:56:48Z</time>
      </trkpt>
      <trkpt lat="45.54033" lon="3.37967">
        <ele>629</ele>
        <time>2025-01-29T07:56:50Z</time>
      </trkpt>
      <trkpt lat="45.54034" lon="3.37957">
        <ele>626</ele>
        <time>2025-01-29T07:56:52Z</time>
      </trkpt>
      <trkpt lat="45.54036" lon="3.37951">
        <ele>624</ele>
        <time>2025-01-29T07:56:54Z</time>
      </trkpt>
      <trkpt lat="45.54034" lon="3.37948">
        <ele>623</ele>
        <time>2025-01-29T07:56:58Z</time>
      </trkpt>
      <trkpt lat="45.54012" lon="3.37962">
        <ele>628</ele>
        <time>2025-01-29T07:57:08Z</time>
      </trkpt>
      <trkpt lat="45.53998" lon="3.37978">
        <ele>629</ele>
        <time>2025-01-29T07:57:16Z</time>
      </trkpt>
      <trkpt lat="45.53996" lon="3.37981">
        <ele>630</ele>
        <time>2025-01-29T07:57:18Z</time>
      </trkpt>
      <trkpt lat="45.53995" lon="3.37984">
        <ele>630</ele>
        <time>2025-01-29T07:57:22Z</time>
      </trkpt>
      <trkpt lat="45.53994" lon="3.37983">
        <ele>630</ele>
        <time>2025-01-29T07:57:26Z</time>
      </trkpt>
      <trkpt lat="45.53992" lon="3.37984">
        <ele>629</ele>
        <time>2025-01-29T07:57:50Z</time>
      </trkpt>
      <trkpt lat="45.53988" lon="3.37992">
        <ele>626</ele>
        <time>2025-01-29T07:57:54Z</time>
      </trkpt>
      <trkpt lat="45.53988" lon="3.37996">
        <ele>626</ele>
        <time>2025-01-29T07:57:56Z</time>
      </trkpt>
      <trkpt lat="45.53989" lon="3.38">
        <ele>625</ele>
        <time>2025-01-29T07:57:58Z</time>
      </trkpt>
      <trkpt lat="45.53989" lon="3.38002">
        <ele>625</ele>
        <time>2025-01-29T07:58:00Z</time>
      </trkpt>
      <trkpt lat="45.53993" lon="3.38006">
        <ele>627</ele>
        <time>2025-01-29T07:58:08Z</time>
      </trkpt>
      <trkpt lat="45.53995" lon="3.38006">
        <ele>627</ele>
        <time>2025-01-29T07:58:10Z</time>
      </trkpt>
      <trkpt lat="45.53997" lon="3.38005">
        <ele>629</ele>
        <time>2025-01-29T07:58:20Z</time>
      </trkpt>
      <trkpt lat="45.54012" lon="3.37988">
        <ele>632</ele>
        <time>2025-01-29T07:58:28Z</time>
      </trkpt>
      <trkpt lat="45.54016" lon="3.37984">
        <ele>632</ele>
        <time>2025-01-29T07:58:30Z</time>
      </trkpt>
      <trkpt lat="45.54021" lon="3.37982">
        <ele>632</ele>
        <time>2025-01-29T07:58:32Z</time>
      </trkpt>
      <trkpt lat="45.54026" lon="3.37982">
        <ele>632</ele>
        <time>2025-01-29T07:58:34Z</time>
      </trkpt>
      <trkpt lat="45.54029" lon="3.37983">
        <ele>633</ele>
        <time>2025-01-29T07:58:36Z</time>
      </trkpt>
      <trkpt lat="45.5403" lon="3.3798">
        <ele>632</ele>
        <time>2025-01-29T07:58:38Z</time>
      </trkpt>
      <trkpt lat="45.5403" lon="3.37976">
        <ele>632</ele>
        <time>2025-01-29T07:58:40Z</time>
      </trkpt>
      <trkpt lat="45.54031" lon="3.37968">
        <ele>631</ele>
        <time>2025-01-29T07:58:42Z</time>
      </trkpt>
      <trkpt lat="45.54035" lon="3.37948">
        <ele>628</ele>
        <time>2025-01-29T07:58:46Z</time>
      </trkpt>
      <trkpt lat="45.54039" lon="3.3794">
        <ele>627</ele>
        <time>2025-01-29T07:58:48Z</time>
      </trkpt>
      <trkpt lat="45.54047" lon="3.37934">
        <ele>624</ele>
        <time>2025-01-29T07:58:50Z</time>
      </trkpt>
      <trkpt lat="45.54072" lon="3.37917">
        <ele>619</ele>
        <time>2025-01-29T07:58:56Z</time>
      </trkpt>
      <trkpt lat="45.54087" lon="3.37896">
        <ele>617</ele>
        <time>2025-01-29T07:59:02Z</time>
      </trkpt>
      <trkpt lat="45.54091" lon="3.37893">
        <ele>616</ele>
        <time>2025-01-29T07:59:04Z</time>
      </trkpt>
      <trkpt lat="45.54093" lon="3.37884">
        <ele>616</ele>
        <time>2025-01-29T07:59:08Z</time>
      </trkpt>
      <trkpt lat="45.54093" lon="3.37879">
        <ele>616</ele>
        <time>2025-01-29T07:59:10Z</time>
      </trkpt>
      <trkpt lat="45.5409" lon="3.37877">
        <ele>616</ele>
        <time>2025-01-29T07:59:12Z</time>
      </trkpt>
      <trkpt lat="45.54028" lon="3.37906">
        <ele>623</ele>
        <time>2025-01-29T07:59:34Z</time>
      </trkpt>
      <trkpt lat="45.53963" lon="3.38004">
        <ele>624</ele>
        <time>2025-01-29T08:00:04Z</time>
      </trkpt>
      <trkpt lat="45.53949" lon="3.38028">
        <ele>626</ele>
        <time>2025-01-29T08:00:12Z</time>
      </trkpt>
      <trkpt lat="45.53902" lon="3.38127">
        <ele>632</ele>
        <time>2025-01-29T08:00:40Z</time>
      </trkpt>
      <trkpt lat="45.53893" lon="3.38139">
        <ele>634</ele>
        <time>2025-01-29T08:00:44Z</time>
      </trkpt>
      <trkpt lat="45.53888" lon="3.38143">
        <ele>634</ele>
        <time>2025-01-29T08:00:46Z</time>
      </trkpt>
      <trkpt lat="45.53881" lon="3.38145">
        <ele>635</ele>
        <time>2025-01-29T08:00:48Z</time>
      </trkpt>
      <trkpt lat="45.53875" lon="3.38146">
        <ele>635</ele>
        <time>2025-01-29T08:00:50Z</time>
      </trkpt>
      <trkpt lat="45.53869" lon="3.38143">
        <ele>635</ele>
        <time>2025-01-29T08:00:52Z</time>
      </trkpt>
      <trkpt lat="45.53834" lon="3.38096">
        <ele>632</ele>
        <time>2025-01-29T08:01:06Z</time>
      </trkpt>
      <trkpt lat="45.53822" lon="3.38088">
        <ele>632</ele>
        <time>2025-01-29T08:01:10Z</time>
      </trkpt>
      <trkpt lat="45.53809" lon="3.38088">
        <ele>632</ele>
        <time>2025-01-29T08:01:14Z</time>
      </trkpt>
      <trkpt lat="45.53735" lon="3.3812">
        <ele>633</ele>
        <time>2025-01-29T08:01:34Z</time>
      </trkpt>
      <trkpt lat="45.53716" lon="3.38137">
        <ele>634</ele>
        <time>2025-01-29T08:01:40Z</time>
      </trkpt>
      <trkpt lat="45.53707" lon="3.38152">
        <ele>635</ele>
        <time>2025-01-29T08:01:44Z</time>
      </trkpt>
      <trkpt lat="45.53692" lon="3.38202">
        <ele>640</ele>
        <time>2025-01-29T08:01:54Z</time>
      </trkpt>
      <trkpt lat="45.53691" lon="3.38234">
        <ele>640</ele>
        <time>2025-01-29T08:02:00Z</time>
      </trkpt>
      <trkpt lat="45.537" lon="3.38275">
        <ele>641</ele>
        <time>2025-01-29T08:02:08Z</time>
      </trkpt>
      <trkpt lat="45.53718" lon="3.38324">
        <ele>645</ele>
        <time>2025-01-29T08:02:18Z</time>
      </trkpt>
      <trkpt lat="45.53721" lon="3.38346">
        <ele>646</ele>
        <time>2025-01-29T08:02:22Z</time>
      </trkpt>
      <trkpt lat="45.5372" lon="3.38369">
        <ele>646</ele>
        <time>2025-01-29T08:02:26Z</time>
      </trkpt>
      <trkpt lat="45.53715" lon="3.38401">
        <ele>647</ele>
        <time>2025-01-29T08:02:32Z</time>
      </trkpt>
      <trkpt lat="45.53716" lon="3.38423">
        <ele>647</ele>
        <time>2025-01-29T08:02:36Z</time>
      </trkpt>
      <trkpt lat="45.53736" lon="3.3849">
        <ele>649</ele>
        <time>2025-01-29T08:02:50Z</time>
      </trkpt>
      <trkpt lat="45.53741" lon="3.38543">
        <ele>651</ele>
        <time>2025-01-29T08:03:00Z</time>
      </trkpt>
      <trkpt lat="45.5374" lon="3.38565">
        <ele>651</ele>
        <time>2025-01-29T08:03:04Z</time>
      </trkpt>
      <trkpt lat="45.53737" lon="3.38575">
        <ele>651</ele>
        <time>2025-01-29T08:03:06Z</time>
      </trkpt>
      <trkpt lat="45.53727" lon="3.38591">
        <ele>652</ele>
        <time>2025-01-29T08:03:10Z</time>
      </trkpt>
      <trkpt lat="45.53701" lon="3.38612">
        <ele>651</ele>
        <time>2025-01-29T08:03:18Z</time>
      </trkpt>
      <trkpt lat="45.5368" lon="3.38621">
        <ele>651</ele>
        <time>2025-01-29T08:03:24Z</time>
      </trkpt>
      <trkpt lat="45.53675" lon="3.38625">
        <ele>652</ele>
        <time>2025-01-29T08:03:26Z</time>
      </trkpt>
      <trkpt lat="45.53675" lon="3.38633">
        <ele>652</ele>
        <time>2025-01-29T08:03:28Z</time>
      </trkpt>
      <trkpt lat="45.53685" lon="3.38653">
        <ele>654</ele>
        <time>2025-01-29T08:03:36Z</time>
      </trkpt>
      <trkpt lat="45.53686" lon="3.38658">
        <ele>654</ele>
        <time>2025-01-29T08:03:38Z</time>
      </trkpt>
      <trkpt lat="45.53695" lon="3.38691">
        <ele>652</ele>
        <time>2025-01-29T08:03:46Z</time>
      </trkpt>
      <trkpt lat="45.53695" lon="3.38696">
        <ele>651</ele>
        <time>2025-01-29T08:03:48Z</time>
      </trkpt>
      <trkpt lat="45.53694" lon="3.387">
        <ele>651</ele>
        <time>2025-01-29T08:03:50Z</time>
      </trkpt>
      <trkpt lat="45.53696" lon="3.38704">
        <ele>650</ele>
        <time>2025-01-29T08:03:54Z</time>
      </trkpt>
      <trkpt lat="45.53699" lon="3.38707">
        <ele>650</ele>
        <time>2025-01-29T08:03:56Z</time>
      </trkpt>
      <trkpt lat="45.53699" lon="3.38713">
        <ele>649</ele>
        <time>2025-01-29T08:03:58Z</time>
      </trkpt>
      <trkpt lat="45.53695" lon="3.38722">
        <ele>648</ele>
        <time>2025-01-29T08:04:02Z</time>
      </trkpt>
      <trkpt lat="45.53684" lon="3.38736">
        <ele>648</ele>
        <time>2025-01-29T08:04:10Z</time>
      </trkpt>
      <trkpt lat="45.53682" lon="3.38738">
        <ele>647</ele>
        <time>2025-01-29T08:04:12Z</time>
      </trkpt>
      <trkpt lat="45.5368" lon="3.38739">
        <ele>647</ele>
        <time>2025-01-29T08:04:14Z</time>
      </trkpt>
      <trkpt lat="45.53675" lon="3.38745">
        <ele>646</ele>
        <time>2025-01-29T08:04:18Z</time>
      </trkpt>
      <trkpt lat="45.53672" lon="3.38747">
        <ele>646</ele>
        <time>2025-01-29T08:04:20Z</time>
      </trkpt>
      <trkpt lat="45.53669" lon="3.38748">
        <ele>645</ele>
        <time>2025-01-29T08:04:22Z</time>
      </trkpt>
      <trkpt lat="45.53647" lon="3.38767">
        <ele>640</ele>
        <time>2025-01-29T08:04:40Z</time>
      </trkpt>
      <trkpt lat="45.53646" lon="3.38769">
        <ele>639</ele>
        <time>2025-01-29T08:04:42Z</time>
      </trkpt>
      <trkpt lat="45.53644" lon="3.38773">
        <ele>638</ele>
        <time>2025-01-29T08:04:44Z</time>
      </trkpt>
      <trkpt lat="45.53635" lon="3.38778">
        <ele>636</ele>
        <time>2025-01-29T08:04:54Z</time>
      </trkpt>
      <trkpt lat="45.53632" lon="3.38779">
        <ele>636</ele>
        <time>2025-01-29T08:04:56Z</time>
      </trkpt>
      <trkpt lat="45.53629" lon="3.38781">
        <ele>635</ele>
        <time>2025-01-29T08:04:58Z</time>
      </trkpt>
      <trkpt lat="45.53626" lon="3.38786">
        <ele>634</ele>
        <time>2025-01-29T08:05:02Z</time>
      </trkpt>
      <trkpt lat="45.53625" lon="3.38787">
        <ele>633</ele>
        <time>2025-01-29T08:05:04Z</time>
      </trkpt>
      <trkpt lat="45.53622" lon="3.38789">
        <ele>632</ele>
        <time>2025-01-29T08:05:08Z</time>
      </trkpt>
      <trkpt lat="45.53621" lon="3.38792">
        <ele>631</ele>
        <time>2025-01-29T08:05:14Z</time>
      </trkpt>
      <trkpt lat="45.5362" lon="3.38794">
        <ele>631</ele>
        <time>2025-01-29T08:05:22Z</time>
      </trkpt>
      <trkpt lat="45.5362" lon="3.38798">
        <ele>631</ele>
        <time>2025-01-29T08:05:26Z</time>
      </trkpt>
      <trkpt lat="45.53618" lon="3.38801">
        <ele>631</ele>
        <time>2025-01-29T08:05:32Z</time>
      </trkpt>
      <trkpt lat="45.53611" lon="3.38803">
        <ele>631</ele>
        <time>2025-01-29T08:05:38Z</time>
      </trkpt>
      <trkpt lat="45.53608" lon="3.38805">
        <ele>631</ele>
        <time>2025-01-29T08:05:40Z</time>
      </trkpt>
      <trkpt lat="45.53604" lon="3.38807">
        <ele>632</ele>
        <time>2025-01-29T08:05:42Z</time>
      </trkpt>
      <trkpt lat="45.53601" lon="3.38814">
        <ele>632</ele>
        <time>2025-01-29T08:05:46Z</time>
      </trkpt>
      <trkpt lat="45.53599" lon="3.38815">
        <ele>632</ele>
        <time>2025-01-29T08:05:50Z</time>
      </trkpt>
      <trkpt lat="45.53599" lon="3.38817">
        <ele>632</ele>
        <time>2025-01-29T08:05:54Z</time>
      </trkpt>
      <trkpt lat="45.53601" lon="3.3882">
        <ele>632</ele>
        <time>2025-01-29T08:05:56Z</time>
      </trkpt>
      <trkpt lat="45.53604" lon="3.38858">
        <ele>628</ele>
        <time>2025-01-29T08:06:08Z</time>
      </trkpt>
      <trkpt lat="45.53603" lon="3.38881">
        <ele>628</ele>
        <time>2025-01-29T08:06:16Z</time>
      </trkpt>
      <trkpt lat="45.53601" lon="3.38886">
        <ele>628</ele>
        <time>2025-01-29T08:06:18Z</time>
      </trkpt>
      <trkpt lat="45.53595" lon="3.38895">
        <ele>627</ele>
        <time>2025-01-29T08:06:22Z</time>
      </trkpt>
      <trkpt lat="45.53591" lon="3.38897">
        <ele>625</ele>
        <time>2025-01-29T08:06:24Z</time>
      </trkpt>
      <trkpt lat="45.53588" lon="3.389">
        <ele>624</ele>
        <time>2025-01-29T08:06:26Z</time>
      </trkpt>
      <trkpt lat="45.53587" lon="3.38904">
        <ele>623</ele>
        <time>2025-01-29T08:06:28Z</time>
      </trkpt>
      <trkpt lat="45.53583" lon="3.38906">
        <ele>621</ele>
        <time>2025-01-29T08:06:30Z</time>
      </trkpt>
      <trkpt lat="45.53576" lon="3.38911">
        <ele>618</ele>
        <time>2025-01-29T08:06:34Z</time>
      </trkpt>
      <trkpt lat="45.53573" lon="3.38912">
        <ele>617</ele>
        <time>2025-01-29T08:06:36Z</time>
      </trkpt>
      <trkpt lat="45.5357" lon="3.38911">
        <ele>616</ele>
        <time>2025-01-29T08:06:38Z</time>
      </trkpt>
      <trkpt lat="45.53562" lon="3.38915">
        <ele>616</ele>
        <time>2025-01-29T08:06:42Z</time>
      </trkpt>
      <trkpt lat="45.53559" lon="3.38918">
        <ele>616</ele>
        <time>2025-01-29T08:06:44Z</time>
      </trkpt>
      <trkpt lat="45.53556" lon="3.38921">
        <ele>616</ele>
        <time>2025-01-29T08:06:46Z</time>
      </trkpt>
      <trkpt lat="45.53538" lon="3.38937">
        <ele>617</ele>
        <time>2025-01-29T08:06:58Z</time>
      </trkpt>
      <trkpt lat="45.53534" lon="3.38944">
        <ele>620</ele>
        <time>2025-01-29T08:07:02Z</time>
      </trkpt>
      <trkpt lat="45.53532" lon="3.38948">
        <ele>622</ele>
        <time>2025-01-29T08:07:04Z</time>
      </trkpt>
      <trkpt lat="45.5352" lon="3.38956">
        <ele>624</ele>
        <time>2025-01-29T08:07:10Z</time>
      </trkpt>
      <trkpt lat="45.53516" lon="3.38958">
        <ele>625</ele>
        <time>2025-01-29T08:07:12Z</time>
      </trkpt>
      <trkpt lat="45.53504" lon="3.38958">
        <ele>628</ele>
        <time>2025-01-29T08:07:18Z</time>
      </trkpt>
      <trkpt lat="45.53502" lon="3.38959">
        <ele>629</ele>
        <time>2025-01-29T08:07:20Z</time>
      </trkpt>
      <trkpt lat="45.53484" lon="3.38957">
        <ele>632</ele>
        <time>2025-01-29T08:07:30Z</time>
      </trkpt>
      <trkpt lat="45.53477" lon="3.38952">
        <ele>634</ele>
        <time>2025-01-29T08:07:34Z</time>
      </trkpt>
      <trkpt lat="45.53473" lon="3.38949">
        <ele>634</ele>
        <time>2025-01-29T08:07:36Z</time>
      </trkpt>
      <trkpt lat="45.5347" lon="3.38948">
        <ele>634</ele>
        <time>2025-01-29T08:07:38Z</time>
      </trkpt>
      <trkpt lat="45.53466" lon="3.3895">
        <ele>635</ele>
        <time>2025-01-29T08:07:42Z</time>
      </trkpt>
      <trkpt lat="45.53457" lon="3.38955">
        <ele>635</ele>
        <time>2025-01-29T08:07:48Z</time>
      </trkpt>
      <trkpt lat="45.53453" lon="3.38957">
        <ele>635</ele>
        <time>2025-01-29T08:07:50Z</time>
      </trkpt>
      <trkpt lat="45.5345" lon="3.38956">
        <ele>635</ele>
        <time>2025-01-29T08:07:52Z</time>
      </trkpt>
      <trkpt lat="45.53447" lon="3.38957">
        <ele>635</ele>
        <time>2025-01-29T08:07:54Z</time>
      </trkpt>
      <trkpt lat="45.53436" lon="3.38958">
        <ele>632</ele>
        <time>2025-01-29T08:08:00Z</time>
      </trkpt>
      <trkpt lat="45.53428" lon="3.38958">
        <ele>631</ele>
        <time>2025-01-29T08:08:04Z</time>
      </trkpt>
      <trkpt lat="45.53425" lon="3.38959">
        <ele>631</ele>
        <time>2025-01-29T08:08:06Z</time>
      </trkpt>
      <trkpt lat="45.5342" lon="3.38978">
        <ele>632</ele>
        <time>2025-01-29T08:08:16Z</time>
      </trkpt>
      <trkpt lat="45.5342" lon="3.38986">
        <ele>633</ele>
        <time>2025-01-29T08:08:20Z</time>
      </trkpt>
      <trkpt lat="45.53421" lon="3.38988">
        <ele>635</ele>
        <time>2025-01-29T08:08:30Z</time>
      </trkpt>
      <trkpt lat="45.53419" lon="3.38992">
        <ele>635</ele>
        <time>2025-01-29T08:09:16Z</time>
      </trkpt>
      <trkpt lat="45.53422" lon="3.38995">
        <ele>634</ele>
        <time>2025-01-29T08:09:20Z</time>
      </trkpt>
      <trkpt lat="45.53424" lon="3.38996">
        <ele>635</ele>
        <time>2025-01-29T08:09:22Z</time>
      </trkpt>
      <trkpt lat="45.53424" lon="3.39001">
        <ele>633</ele>
        <time>2025-01-29T08:10:46Z</time>
      </trkpt>
      <trkpt lat="45.53425" lon="3.3901">
        <ele>635</ele>
        <time>2025-01-29T08:10:50Z</time>
      </trkpt>
      <trkpt lat="45.53427" lon="3.39021">
        <ele>637</ele>
        <time>2025-01-29T08:10:54Z</time>
      </trkpt>
      <trkpt lat="45.53426" lon="3.39031">
        <ele>638</ele>
        <time>2025-01-29T08:10:58Z</time>
      </trkpt>
      <trkpt lat="45.53426" lon="3.39035">
        <ele>639</ele>
        <time>2025-01-29T08:11:00Z</time>
      </trkpt>
      <trkpt lat="45.53425" lon="3.39044">
        <ele>640</ele>
        <time>2025-01-29T08:11:04Z</time>
      </trkpt>
      <trkpt lat="45.53424" lon="3.39047">
        <ele>640</ele>
        <time>2025-01-29T08:11:06Z</time>
      </trkpt>
      <trkpt lat="45.53415" lon="3.39052">
        <ele>643</ele>
        <time>2025-01-29T08:11:12Z</time>
      </trkpt>
      <trkpt lat="45.53412" lon="3.39053">
        <ele>644</ele>
        <time>2025-01-29T08:11:14Z</time>
      </trkpt>
      <trkpt lat="45.53409" lon="3.39052">
        <ele>645</ele>
        <time>2025-01-29T08:11:16Z</time>
      </trkpt>
      <trkpt lat="45.53406" lon="3.3905">
        <ele>646</ele>
        <time>2025-01-29T08:11:18Z</time>
      </trkpt>
      <trkpt lat="45.53403" lon="3.39051">
        <ele>647</ele>
        <time>2025-01-29T08:11:20Z</time>
      </trkpt>
      <trkpt lat="45.53401" lon="3.39054">
        <ele>647</ele>
        <time>2025-01-29T08:11:22Z</time>
      </trkpt>
      <trkpt lat="45.53406" lon="3.39094">
        <ele>642</ele>
        <time>2025-01-29T08:11:40Z</time>
      </trkpt>
      <trkpt lat="45.53429" lon="3.39164">
        <ele>633</ele>
        <time>2025-01-29T08:11:54Z</time>
      </trkpt>
      <trkpt lat="45.5343" lon="3.39164">
        <ele>633</ele>
        <time>2025-01-29T08:11:56Z</time>
      </trkpt>
      <trkpt lat="45.53435" lon="3.39172">
        <ele>632</ele>
        <time>2025-01-29T08:12:08Z</time>
      </trkpt>
      <trkpt lat="45.53436" lon="3.39184">
        <ele>631</ele>
        <time>2025-01-29T08:12:12Z</time>
      </trkpt>
      <trkpt lat="45.53436" lon="3.39188">
        <ele>631</ele>
        <time>2025-01-29T08:12:14Z</time>
      </trkpt>
      <trkpt lat="45.53437" lon="3.39193">
        <ele>630</ele>
        <time>2025-01-29T08:12:16Z</time>
      </trkpt>
      <trkpt lat="45.53436" lon="3.39197">
        <ele>630</ele>
        <time>2025-01-29T08:12:18Z</time>
      </trkpt>
      <trkpt lat="45.53435" lon="3.39201">
        <ele>630</ele>
        <time>2025-01-29T08:12:20Z</time>
      </trkpt>
      <trkpt lat="45.53433" lon="3.39204">
        <ele>630</ele>
        <time>2025-01-29T08:12:22Z</time>
      </trkpt>
      <trkpt lat="45.53431" lon="3.39208">
        <ele>630</ele>
        <time>2025-01-29T08:12:24Z</time>
      </trkpt>
      <trkpt lat="45.53429" lon="3.39281">
        <ele>627</ele>
        <time>2025-01-29T08:12:40Z</time>
      </trkpt>
      <trkpt lat="45.53429" lon="3.39286">
        <ele>626</ele>
        <time>2025-01-29T08:12:42Z</time>
      </trkpt>
      <trkpt lat="45.53447" lon="3.3929">
        <ele>617</ele>
        <time>2025-01-29T08:12:52Z</time>
      </trkpt>
      <trkpt lat="45.53453" lon="3.39294">
        <ele>615</ele>
        <time>2025-01-29T08:12:54Z</time>
      </trkpt>
      <trkpt lat="45.53458" lon="3.39298">
        <ele>613</ele>
        <time>2025-01-29T08:12:56Z</time>
      </trkpt>
      <trkpt lat="45.53463" lon="3.393">
        <ele>610</ele>
        <time>2025-01-29T08:12:58Z</time>
      </trkpt>
      <trkpt lat="45.53476" lon="3.39316">
        <ele>600</ele>
        <time>2025-01-29T08:13:08Z</time>
      </trkpt>
      <trkpt lat="45.53481" lon="3.39318">
        <ele>597</ele>
        <time>2025-01-29T08:13:10Z</time>
      </trkpt>
      <trkpt lat="45.53487" lon="3.3932">
        <ele>595</ele>
        <time>2025-01-29T08:13:12Z</time>
      </trkpt>
      <trkpt lat="45.53495" lon="3.3932">
        <ele>592</ele>
        <time>2025-01-29T08:13:14Z</time>
      </trkpt>
      <trkpt lat="45.53514" lon="3.39329">
        <ele>588</ele>
        <time>2025-01-29T08:13:22Z</time>
      </trkpt>
      <trkpt lat="45.53516" lon="3.39331">
        <ele>589</ele>
        <time>2025-01-29T08:13:24Z</time>
      </trkpt>
      <trkpt lat="45.53525" lon="3.39336">
        <ele>591</ele>
        <time>2025-01-29T08:13:30Z</time>
      </trkpt>
      <trkpt lat="45.5353" lon="3.39341">
        <ele>590</ele>
        <time>2025-01-29T08:13:32Z</time>
      </trkpt>
      <trkpt lat="45.53537" lon="3.39358">
        <ele>588</ele>
        <time>2025-01-29T08:13:36Z</time>
      </trkpt>
      <trkpt lat="45.53537" lon="3.39373">
        <ele>585</ele>
        <time>2025-01-29T08:13:40Z</time>
      </trkpt>
      <trkpt lat="45.53536" lon="3.39382">
        <ele>583</ele>
        <time>2025-01-29T08:13:42Z</time>
      </trkpt>
      <trkpt lat="45.53525" lon="3.3943">
        <ele>576</ele>
        <time>2025-01-29T08:13:52Z</time>
      </trkpt>
      <trkpt lat="45.53525" lon="3.3944">
        <ele>577</ele>
        <time>2025-01-29T08:13:54Z</time>
      </trkpt>
      <trkpt lat="45.53527" lon="3.39451">
        <ele>577</ele>
        <time>2025-01-29T08:13:56Z</time>
      </trkpt>
      <trkpt lat="45.53532" lon="3.39463">
        <ele>578</ele>
        <time>2025-01-29T08:13:58Z</time>
      </trkpt>
      <trkpt lat="45.53556" lon="3.39501">
        <ele>575</ele>
        <time>2025-01-29T08:14:06Z</time>
      </trkpt>
      <trkpt lat="45.53559" lon="3.39513">
        <ele>573</ele>
        <time>2025-01-29T08:14:08Z</time>
      </trkpt>
      <trkpt lat="45.53565" lon="3.39543">
        <ele>569</ele>
        <time>2025-01-29T08:14:12Z</time>
      </trkpt>
      <trkpt lat="45.53568" lon="3.39557">
        <ele>567</ele>
        <time>2025-01-29T08:14:14Z</time>
      </trkpt>
      <trkpt lat="45.5357" lon="3.39572">
        <ele>564</ele>
        <time>2025-01-29T08:14:16Z</time>
      </trkpt>
      <trkpt lat="45.53571" lon="3.39583">
        <ele>562</ele>
        <time>2025-01-29T08:14:18Z</time>
      </trkpt>
      <trkpt lat="45.53569" lon="3.39597">
        <ele>559</ele>
        <time>2025-01-29T08:14:22Z</time>
      </trkpt>
      <trkpt lat="45.53567" lon="3.39604">
        <ele>557</ele>
        <time>2025-01-29T08:14:24Z</time>
      </trkpt>
      <trkpt lat="45.53548" lon="3.39633">
        <ele>549</ele>
        <time>2025-01-29T08:14:38Z</time>
      </trkpt>
      <trkpt lat="45.53541" lon="3.39643">
        <ele>549</ele>
        <time>2025-01-29T08:14:42Z</time>
      </trkpt>
      <trkpt lat="45.53536" lon="3.39657">
        <ele>550</ele>
        <time>2025-01-29T08:14:46Z</time>
      </trkpt>
      <trkpt lat="45.53533" lon="3.39663">
        <ele>549</ele>
        <time>2025-01-29T08:14:48Z</time>
      </trkpt>
      <trkpt lat="45.5353" lon="3.3967">
        <ele>547</ele>
        <time>2025-01-29T08:14:50Z</time>
      </trkpt>
      <trkpt lat="45.5353" lon="3.39676">
        <ele>546</ele>
        <time>2025-01-29T08:14:52Z</time>
      </trkpt>
      <trkpt lat="45.53534" lon="3.39677">
        <ele>544</ele>
        <time>2025-01-29T08:14:54Z</time>
      </trkpt>
      <trkpt lat="45.53536" lon="3.39673">
        <ele>543</ele>
        <time>2025-01-29T08:14:56Z</time>
      </trkpt>
      <trkpt lat="45.5354" lon="3.39671">
        <ele>543</ele>
        <time>2025-01-29T08:14:58Z</time>
      </trkpt>
      <trkpt lat="45.53536" lon="3.3968">
        <ele>539</ele>
        <time>2025-01-29T08:15:04Z</time>
      </trkpt>
      <trkpt lat="45.53535" lon="3.39685">
        <ele>537</ele>
        <time>2025-01-29T08:15:06Z</time>
      </trkpt>
      <trkpt lat="45.53535" lon="3.3969">
        <ele>536</ele>
        <time>2025-01-29T08:15:08Z</time>
      </trkpt>
      <trkpt lat="45.53536" lon="3.39695">
        <ele>535</ele>
        <time>2025-01-29T08:15:10Z</time>
      </trkpt>
      <trkpt lat="45.5354" lon="3.39693">
        <ele>532</ele>
        <time>2025-01-29T08:15:14Z</time>
      </trkpt>
      <trkpt lat="45.53582" lon="3.39664">
        <ele>531</ele>
        <time>2025-01-29T08:15:32Z</time>
      </trkpt>
      <trkpt lat="45.53585" lon="3.39661">
        <ele>531</ele>
        <time>2025-01-29T08:15:34Z</time>
      </trkpt>
      <trkpt lat="45.53589" lon="3.3966">
        <ele>530</ele>
        <time>2025-01-29T08:15:36Z</time>
      </trkpt>
      <trkpt lat="45.53591" lon="3.39658">
        <ele>530</ele>
        <time>2025-01-29T08:15:38Z</time>
      </trkpt>
      <trkpt lat="45.53594" lon="3.39656">
        <ele>529</ele>
        <time>2025-01-29T08:15:40Z</time>
      </trkpt>
      <trkpt lat="45.53597" lon="3.39656">
        <ele>529</ele>
        <time>2025-01-29T08:15:42Z</time>
      </trkpt>
      <trkpt lat="45.53606" lon="3.39657">
        <ele>528</ele>
        <time>2025-01-29T08:15:46Z</time>
      </trkpt>
      <trkpt lat="45.53611" lon="3.39656">
        <ele>528</ele>
        <time>2025-01-29T08:15:48Z</time>
      </trkpt>
      <trkpt lat="45.53616" lon="3.39654">
        <ele>527</ele>
        <time>2025-01-29T08:15:50Z</time>
      </trkpt>
      <trkpt lat="45.53624" lon="3.3965">
        <ele>525</ele>
        <time>2025-01-29T08:15:52Z</time>
      </trkpt>
      <trkpt lat="45.53631" lon="3.39642">
        <ele>523</ele>
        <time>2025-01-29T08:15:54Z</time>
      </trkpt>
      <trkpt lat="45.53641" lon="3.39624">
        <ele>518</ele>
        <time>2025-01-29T08:15:58Z</time>
      </trkpt>
      <trkpt lat="45.53645" lon="3.39618">
        <ele>517</ele>
        <time>2025-01-29T08:16:00Z</time>
      </trkpt>
      <trkpt lat="45.53648" lon="3.39618">
        <ele>516</ele>
        <time>2025-01-29T08:16:02Z</time>
      </trkpt>
      <trkpt lat="45.53653" lon="3.39623">
        <ele>515</ele>
        <time>2025-01-29T08:16:06Z</time>
      </trkpt>
      <trkpt lat="45.53659" lon="3.39627">
        <ele>515</ele>
        <time>2025-01-29T08:16:10Z</time>
      </trkpt>
      <trkpt lat="45.53661" lon="3.39631">
        <ele>514</ele>
        <time>2025-01-29T08:16:12Z</time>
      </trkpt>
      <trkpt lat="45.53657" lon="3.39653">
        <ele>511</ele>
        <time>2025-01-29T08:16:20Z</time>
      </trkpt>
      <trkpt lat="45.53649" lon="3.39675">
        <ele>511</ele>
        <time>2025-01-29T08:16:28Z</time>
      </trkpt>
      <trkpt lat="45.53648" lon="3.39681">
        <ele>511</ele>
        <time>2025-01-29T08:16:30Z</time>
      </trkpt>
      <trkpt lat="45.53624" lon="3.39723">
        <ele>513</ele>
        <time>2025-01-29T08:16:44Z</time>
      </trkpt>
      <trkpt lat="45.53612" lon="3.39742">
        <ele>515</ele>
        <time>2025-01-29T08:16:50Z</time>
      </trkpt>
      <trkpt lat="45.53593" lon="3.39794">
        <ele>520</ele>
        <time>2025-01-29T08:17:04Z</time>
      </trkpt>
      <trkpt lat="45.53589" lon="3.39808">
        <ele>521</ele>
        <time>2025-01-29T08:17:08Z</time>
      </trkpt>
      <trkpt lat="45.53576" lon="3.3987">
        <ele>520</ele>
        <time>2025-01-29T08:17:22Z</time>
      </trkpt>
      <trkpt lat="45.53542" lon="3.39975">
        <ele>516</ele>
        <time>2025-01-29T08:17:46Z</time>
      </trkpt>
      <trkpt lat="45.5354" lon="3.39993">
        <ele>518</ele>
        <time>2025-01-29T08:17:50Z</time>
      </trkpt>
      <trkpt lat="45.53538" lon="3.40012">
        <ele>522</ele>
        <time>2025-01-29T08:17:54Z</time>
      </trkpt>
      <trkpt lat="45.53529" lon="3.40045">
        <ele>522</ele>
        <time>2025-01-29T08:18:00Z</time>
      </trkpt>
      <trkpt lat="45.5349" lon="3.40123">
        <ele>519</ele>
        <time>2025-01-29T08:18:16Z</time>
      </trkpt>
      <trkpt lat="45.53478" lon="3.40139">
        <ele>518</ele>
        <time>2025-01-29T08:18:20Z</time>
      </trkpt>
      <trkpt lat="45.53471" lon="3.40158">
        <ele>520</ele>
        <time>2025-01-29T08:18:24Z</time>
      </trkpt>
      <trkpt lat="45.53472" lon="3.4018">
        <ele>522</ele>
        <time>2025-01-29T08:18:28Z</time>
      </trkpt>
      <trkpt lat="45.53476" lon="3.40201">
        <ele>523</ele>
        <time>2025-01-29T08:18:32Z</time>
      </trkpt>
      <trkpt lat="45.53489" lon="3.40239">
        <ele>524</ele>
        <time>2025-01-29T08:18:40Z</time>
      </trkpt>
      <trkpt lat="45.53491" lon="3.40248">
        <ele>525</ele>
        <time>2025-01-29T08:18:42Z</time>
      </trkpt>
      <trkpt lat="45.53489" lon="3.40258">
        <ele>528</ele>
        <time>2025-01-29T08:18:44Z</time>
      </trkpt>
      <trkpt lat="45.53486" lon="3.40266">
        <ele>532</ele>
        <time>2025-01-29T08:18:46Z</time>
      </trkpt>
      <trkpt lat="45.53477" lon="3.40284">
        <ele>535</ele>
        <time>2025-01-29T08:18:50Z</time>
      </trkpt>
      <trkpt lat="45.53465" lon="3.40293">
        <ele>534</ele>
        <time>2025-01-29T08:18:54Z</time>
      </trkpt>
      <trkpt lat="45.5346" lon="3.40296">
        <ele>533</ele>
        <time>2025-01-29T08:18:56Z</time>
      </trkpt>
      <trkpt lat="45.53397" lon="3.40279">
        <ele>522</ele>
        <time>2025-01-29T08:19:14Z</time>
      </trkpt>
      <trkpt lat="45.53376" lon="3.40283">
        <ele>518</ele>
        <time>2025-01-29T08:19:20Z</time>
      </trkpt>
      <trkpt lat="45.53357" lon="3.40296">
        <ele>515</ele>
        <time>2025-01-29T08:19:26Z</time>
      </trkpt>
      <trkpt lat="45.53351" lon="3.40304">
        <ele>517</ele>
        <time>2025-01-29T08:19:28Z</time>
      </trkpt>
      <trkpt lat="45.53345" lon="3.40311">
        <ele>520</ele>
        <time>2025-01-29T08:19:30Z</time>
      </trkpt>
      <trkpt lat="45.53343" lon="3.40322">
        <ele>522</ele>
        <time>2025-01-29T08:19:32Z</time>
      </trkpt>
      <trkpt lat="45.53357" lon="3.40389">
        <ele>529</ele>
        <time>2025-01-29T08:19:44Z</time>
      </trkpt>
      <trkpt lat="45.53354" lon="3.40412">
        <ele>530</ele>
        <time>2025-01-29T08:19:48Z</time>
      </trkpt>
      <trkpt lat="45.53351" lon="3.40422">
        <ele>529</ele>
        <time>2025-01-29T08:19:50Z</time>
      </trkpt>
      <trkpt lat="45.53311" lon="3.40461">
        <ele>532</ele>
        <time>2025-01-29T08:20:02Z</time>
      </trkpt>
      <trkpt lat="45.53292" lon="3.40485">
        <ele>534</ele>
        <time>2025-01-29T08:20:08Z</time>
      </trkpt>
      <trkpt lat="45.53286" lon="3.40493">
        <ele>533</ele>
        <time>2025-01-29T08:20:10Z</time>
      </trkpt>
      <trkpt lat="45.53275" lon="3.40524">
        <ele>533</ele>
        <time>2025-01-29T08:20:16Z</time>
      </trkpt>
      <trkpt lat="45.53265" lon="3.40554">
        <ele>534</ele>
        <time>2025-01-29T08:20:22Z</time>
      </trkpt>
      <trkpt lat="45.53262" lon="3.40576">
        <ele>536</ele>
        <time>2025-01-29T08:20:26Z</time>
      </trkpt>
      <trkpt lat="45.53266" lon="3.40597">
        <ele>538</ele>
        <time>2025-01-29T08:20:30Z</time>
      </trkpt>
      <trkpt lat="45.53269" lon="3.40609">
        <ele>537</ele>
        <time>2025-01-29T08:20:32Z</time>
      </trkpt>
      <trkpt lat="45.5328" lon="3.40627">
        <ele>538</ele>
        <time>2025-01-29T08:20:36Z</time>
      </trkpt>
      <trkpt lat="45.53291" lon="3.40647">
        <ele>541</ele>
        <time>2025-01-29T08:20:40Z</time>
      </trkpt>
      <trkpt lat="45.53307" lon="3.40684">
        <ele>546</ele>
        <time>2025-01-29T08:20:48Z</time>
      </trkpt>
      <trkpt lat="45.53315" lon="3.40696">
        <ele>549</ele>
        <time>2025-01-29T08:20:52Z</time>
      </trkpt>
      <trkpt lat="45.53325" lon="3.40706">
        <ele>553</ele>
        <time>2025-01-29T08:20:56Z</time>
      </trkpt>
      <trkpt lat="45.53337" lon="3.40712">
        <ele>556</ele>
        <time>2025-01-29T08:21:00Z</time>
      </trkpt>
      <trkpt lat="45.53343" lon="3.40714">
        <ele>558</ele>
        <time>2025-01-29T08:21:02Z</time>
      </trkpt>
      <trkpt lat="45.5339" lon="3.40718">
        <ele>581</ele>
        <time>2025-01-29T08:21:18Z</time>
      </trkpt>
      <trkpt lat="45.5342" lon="3.40718">
        <ele>582</ele>
        <time>2025-01-29T08:21:26Z</time>
      </trkpt>
      <trkpt lat="45.53429" lon="3.40721">
        <ele>582</ele>
        <time>2025-01-29T08:21:28Z</time>
      </trkpt>
      <trkpt lat="45.5344" lon="3.40728">
        <ele>588</ele>
        <time>2025-01-29T08:21:32Z</time>
      </trkpt>
      <trkpt lat="45.53465" lon="3.40733">
        <ele>585</ele>
        <time>2025-01-29T08:21:38Z</time>
      </trkpt>
      <trkpt lat="45.53473" lon="3.40734">
        <ele>582</ele>
        <time>2025-01-29T08:21:40Z</time>
      </trkpt>
      <trkpt lat="45.53485" lon="3.4074">
        <ele>575</ele>
        <time>2025-01-29T08:21:44Z</time>
      </trkpt>
      <trkpt lat="45.5349" lon="3.40742">
        <ele>572</ele>
        <time>2025-01-29T08:21:46Z</time>
      </trkpt>
      <trkpt lat="45.53496" lon="3.40744">
        <ele>570</ele>
        <time>2025-01-29T08:21:48Z</time>
      </trkpt>
      <trkpt lat="45.53503" lon="3.40748">
        <ele>568</ele>
        <time>2025-01-29T08:21:52Z</time>
      </trkpt>
      <trkpt lat="45.53511" lon="3.40752">
        <ele>565</ele>
        <time>2025-01-29T08:21:56Z</time>
      </trkpt>
      <trkpt lat="45.53515" lon="3.40753">
        <ele>564</ele>
        <time>2025-01-29T08:21:58Z</time>
      </trkpt>
      <trkpt lat="45.5352" lon="3.40753">
        <ele>563</ele>
        <time>2025-01-29T08:22:00Z</time>
      </trkpt>
      <trkpt lat="45.53523" lon="3.40751">
        <ele>563</ele>
        <time>2025-01-29T08:22:02Z</time>
      </trkpt>
      <trkpt lat="45.53523" lon="3.40746">
        <ele>564</ele>
        <time>2025-01-29T08:22:04Z</time>
      </trkpt>
      <trkpt lat="45.53522" lon="3.40742">
        <ele>564</ele>
        <time>2025-01-29T08:22:06Z</time>
      </trkpt>
      <trkpt lat="45.5352" lon="3.40738">
        <ele>564</ele>
        <time>2025-01-29T08:22:08Z</time>
      </trkpt>
      <trkpt lat="45.53517" lon="3.40731">
        <ele>565</ele>
        <time>2025-01-29T08:22:12Z</time>
      </trkpt>
      <trkpt lat="45.53506" lon="3.40713">
        <ele>575</ele>
        <time>2025-01-29T08:22:22Z</time>
      </trkpt>
      <trkpt lat="45.53499" lon="3.40711">
        <ele>581</ele>
        <time>2025-01-29T08:22:26Z</time>
      </trkpt>
      <trkpt lat="45.53488" lon="3.40706">
        <ele>587</ele>
        <time>2025-01-29T08:22:32Z</time>
      </trkpt>
      <trkpt lat="45.53476" lon="3.407">
        <ele>591</ele>
        <time>2025-01-29T08:22:40Z</time>
      </trkpt>
      <trkpt lat="45.53469" lon="3.40696">
        <ele>592</ele>
        <time>2025-01-29T08:22:44Z</time>
      </trkpt>
      <trkpt lat="45.53448" lon="3.40667">
        <ele>585</ele>
        <time>2025-01-29T08:23:00Z</time>
      </trkpt>
      <trkpt lat="45.53423" lon="3.4063">
        <ele>583</ele>
        <time>2025-01-29T08:23:20Z</time>
      </trkpt>
      <trkpt lat="45.53409" lon="3.40618">
        <ele>596</ele>
        <time>2025-01-29T08:23:30Z</time>
      </trkpt>
      <trkpt lat="45.53403" lon="3.40615">
        <ele>602</ele>
        <time>2025-01-29T08:23:34Z</time>
      </trkpt>
      <trkpt lat="45.53396" lon="3.40608">
        <ele>605</ele>
        <time>2025-01-29T08:23:50Z</time>
      </trkpt>
      <trkpt lat="45.5339" lon="3.40597">
        <ele>606</ele>
        <time>2025-01-29T08:23:56Z</time>
      </trkpt>
      <trkpt lat="45.53387" lon="3.40587">
        <ele>607</ele>
        <time>2025-01-29T08:24:00Z</time>
      </trkpt>
      <trkpt lat="45.53386" lon="3.40583">
        <ele>607</ele>
        <time>2025-01-29T08:24:02Z</time>
      </trkpt>
      <trkpt lat="45.53387" lon="3.40572">
        <ele>607</ele>
        <time>2025-01-29T08:24:06Z</time>
      </trkpt>
      <trkpt lat="45.53387" lon="3.40567">
        <ele>606</ele>
        <time>2025-01-29T08:24:08Z</time>
      </trkpt>
      <trkpt lat="45.53389" lon="3.40562">
        <ele>606</ele>
        <time>2025-01-29T08:24:10Z</time>
      </trkpt>
      <trkpt lat="45.53391" lon="3.40559">
        <ele>606</ele>
        <time>2025-01-29T08:24:12Z</time>
      </trkpt>
      <trkpt lat="45.53394" lon="3.40558">
        <ele>607</ele>
        <time>2025-01-29T08:24:14Z</time>
      </trkpt>
      <trkpt lat="45.534" lon="3.40561">
        <ele>609</ele>
        <time>2025-01-29T08:24:18Z</time>
      </trkpt>
      <trkpt lat="45.53401" lon="3.40559">
        <ele>610</ele>
        <time>2025-01-29T08:24:28Z</time>
      </trkpt>
      <trkpt lat="45.53404" lon="3.40558">
        <ele>609</ele>
        <time>2025-01-29T08:25:38Z</time>
      </trkpt>
      <trkpt lat="45.53409" lon="3.40553">
        <ele>609</ele>
        <time>2025-01-29T08:25:42Z</time>
      </trkpt>
      <trkpt lat="45.53412" lon="3.40548">
        <ele>609</ele>
        <time>2025-01-29T08:25:44Z</time>
      </trkpt>
      <trkpt lat="45.53422" lon="3.40541">
        <ele>612</ele>
        <time>2025-01-29T08:25:50Z</time>
      </trkpt>
      <trkpt lat="45.53425" lon="3.40541">
        <ele>612</ele>
        <time>2025-01-29T08:25:52Z</time>
      </trkpt>
      <trkpt lat="45.53443" lon="3.40536">
        <ele>619</ele>
        <time>2025-01-29T08:26:02Z</time>
      </trkpt>
      <trkpt lat="45.53451" lon="3.40536">
        <ele>620</ele>
        <time>2025-01-29T08:26:08Z</time>
      </trkpt>
      <trkpt lat="45.53455" lon="3.40532">
        <ele>621</ele>
        <time>2025-01-29T08:26:20Z</time>
      </trkpt>
      <trkpt lat="45.5345" lon="3.40534">
        <ele>622</ele>
        <time>2025-01-29T08:30:20Z</time>
      </trkpt>
      <trkpt lat="45.53446" lon="3.40535">
        <ele>622</ele>
        <time>2025-01-29T08:30:26Z</time>
      </trkpt>
      <trkpt lat="45.53447" lon="3.40537">
        <ele>621</ele>
        <time>2025-01-29T08:30:40Z</time>
      </trkpt>
      <trkpt lat="45.53443" lon="3.40536">
        <ele>623</ele>
        <time>2025-01-29T08:31:08Z</time>
      </trkpt>
      <trkpt lat="45.53441" lon="3.40536">
        <ele>623</ele>
        <time>2025-01-29T08:31:10Z</time>
      </trkpt>
      <trkpt lat="45.53449" lon="3.40539">
        <ele>620</ele>
        <time>2025-01-29T08:31:34Z</time>
      </trkpt>
      <trkpt lat="45.53451" lon="3.40541">
        <ele>620</ele>
        <time>2025-01-29T08:31:36Z</time>
      </trkpt>
      <trkpt lat="45.53453" lon="3.40541">
        <ele>620</ele>
        <time>2025-01-29T08:31:42Z</time>
      </trkpt>
      <trkpt lat="45.53456" lon="3.40539">
        <ele>620</ele>
        <time>2025-01-29T08:31:54Z</time>
      </trkpt>
      <trkpt lat="45.53456" lon="3.40536">
        <ele>621</ele>
        <time>2025-01-29T08:32:02Z</time>
      </trkpt>
      <trkpt lat="45.53467" lon="3.40525">
        <ele>622</ele>
        <time>2025-01-29T08:32:16Z</time>
      </trkpt>
      <trkpt lat="45.53471" lon="3.4052">
        <ele>624</ele>
        <time>2025-01-29T08:32:20Z</time>
      </trkpt>
      <trkpt lat="45.5347" lon="3.40522">
        <ele>626</ele>
        <time>2025-01-29T08:32:28Z</time>
      </trkpt>
      <trkpt lat="45.53474" lon="3.4052">
        <ele>626</ele>
        <time>2025-01-29T08:32:38Z</time>
      </trkpt>
      <trkpt lat="45.53486" lon="3.40521">
        <ele>626</ele>
        <time>2025-01-29T08:32:44Z</time>
      </trkpt>
      <trkpt lat="45.53489" lon="3.40521">
        <ele>626</ele>
        <time>2025-01-29T08:32:46Z</time>
      </trkpt>
      <trkpt lat="45.53523" lon="3.4053">
        <ele>633</ele>
        <time>2025-01-29T08:33:06Z</time>
      </trkpt>
      <trkpt lat="45.53528" lon="3.40531">
        <ele>635</ele>
        <time>2025-01-29T08:33:08Z</time>
      </trkpt>
      <trkpt lat="45.53559" lon="3.40529">
        <ele>645</ele>
        <time>2025-01-29T08:33:26Z</time>
      </trkpt>
      <trkpt lat="45.53573" lon="3.40537">
        <ele>648</ele>
        <time>2025-01-29T08:33:34Z</time>
      </trkpt>
      <trkpt lat="45.53586" lon="3.40548">
        <ele>653</ele>
        <time>2025-01-29T08:33:42Z</time>
      </trkpt>
      <trkpt lat="45.53588" lon="3.40548">
        <ele>653</ele>
        <time>2025-01-29T08:33:44Z</time>
      </trkpt>
      <trkpt lat="45.5359" lon="3.40542">
        <ele>654</ele>
        <time>2025-01-29T08:33:48Z</time>
      </trkpt>
      <trkpt lat="45.53592" lon="3.40537">
        <ele>654</ele>
        <time>2025-01-29T08:33:50Z</time>
      </trkpt>
      <trkpt lat="45.53594" lon="3.40528">
        <ele>653</ele>
        <time>2025-01-29T08:33:54Z</time>
      </trkpt>
      <trkpt lat="45.53609" lon="3.40483">
        <ele>651</ele>
        <time>2025-01-29T08:34:12Z</time>
      </trkpt>
      <trkpt lat="45.53614" lon="3.40462">
        <ele>648</ele>
        <time>2025-01-29T08:34:18Z</time>
      </trkpt>
      <trkpt lat="45.5363" lon="3.40416">
        <ele>652</ele>
        <time>2025-01-29T08:34:30Z</time>
      </trkpt>
      <trkpt lat="45.53655" lon="3.40385">
        <ele>663</ele>
        <time>2025-01-29T08:34:44Z</time>
      </trkpt>
      <trkpt lat="45.5366" lon="3.40374">
        <ele>666</ele>
        <time>2025-01-29T08:34:48Z</time>
      </trkpt>
      <trkpt lat="45.53662" lon="3.40367">
        <ele>668</ele>
        <time>2025-01-29T08:34:50Z</time>
      </trkpt>
      <trkpt lat="45.53665" lon="3.40356">
        <ele>669</ele>
        <time>2025-01-29T08:34:54Z</time>
      </trkpt>
      <trkpt lat="45.53666" lon="3.40351">
        <ele>670</ele>
        <time>2025-01-29T08:34:56Z</time>
      </trkpt>
      <trkpt lat="45.53668" lon="3.40345">
        <ele>670</ele>
        <time>2025-01-29T08:34:58Z</time>
      </trkpt>
      <trkpt lat="45.53693" lon="3.40301">
        <ele>673</ele>
        <time>2025-01-29T08:35:16Z</time>
      </trkpt>
      <trkpt lat="45.53705" lon="3.4029">
        <ele>676</ele>
        <time>2025-01-29T08:35:22Z</time>
      </trkpt>
      <trkpt lat="45.53777" lon="3.40274">
        <ele>687</ele>
        <time>2025-01-29T08:35:52Z</time>
      </trkpt>
      <trkpt lat="45.53808" lon="3.40263">
        <ele>693</ele>
        <time>2025-01-29T08:36:06Z</time>
      </trkpt>
      <trkpt lat="45.53812" lon="3.40261">
        <ele>693</ele>
        <time>2025-01-29T08:36:08Z</time>
      </trkpt>
      <trkpt lat="45.53819" lon="3.40252">
        <ele>694</ele>
        <time>2025-01-29T08:36:12Z</time>
      </trkpt>
      <trkpt lat="45.53835" lon="3.4022">
        <ele>699</ele>
        <time>2025-01-29T08:36:24Z</time>
      </trkpt>
      <trkpt lat="45.53842" lon="3.40211">
        <ele>700</ele>
        <time>2025-01-29T08:36:28Z</time>
      </trkpt>
      <trkpt lat="45.53872" lon="3.40193">
        <ele>703</ele>
        <time>2025-01-29T08:36:44Z</time>
      </trkpt>
      <trkpt lat="45.53875" lon="3.40192">
        <ele>704</ele>
        <time>2025-01-29T08:36:46Z</time>
      </trkpt>
      <trkpt lat="45.53878" lon="3.40194">
        <ele>705</ele>
        <time>2025-01-29T08:36:48Z</time>
      </trkpt>
      <trkpt lat="45.5388" lon="3.40204">
        <ele>708</ele>
        <time>2025-01-29T08:36:52Z</time>
      </trkpt>
      <trkpt lat="45.53885" lon="3.40223">
        <ele>712</ele>
        <time>2025-01-29T08:37:00Z</time>
      </trkpt>
      <trkpt lat="45.5391" lon="3.4024">
        <ele>714</ele>
        <time>2025-01-29T08:37:14Z</time>
      </trkpt>
      <trkpt lat="45.53934" lon="3.40248">
        <ele>712</ele>
        <time>2025-01-29T08:37:24Z</time>
      </trkpt>
      <trkpt lat="45.53939" lon="3.40248">
        <ele>712</ele>
        <time>2025-01-29T08:37:26Z</time>
      </trkpt>
      <trkpt lat="45.53943" lon="3.40247">
        <ele>713</ele>
        <time>2025-01-29T08:37:28Z</time>
      </trkpt>
      <trkpt lat="45.53946" lon="3.40246">
        <ele>713</ele>
        <time>2025-01-29T08:37:30Z</time>
      </trkpt>
      <trkpt lat="45.5395" lon="3.40246">
        <ele>713</ele>
        <time>2025-01-29T08:37:32Z</time>
      </trkpt>
      <trkpt lat="45.53964" lon="3.40246">
        <ele>711</ele>
        <time>2025-01-29T08:37:36Z</time>
      </trkpt>
      <trkpt lat="45.53995" lon="3.40264">
        <ele>707</ele>
        <time>2025-01-29T08:37:44Z</time>
      </trkpt>
      <trkpt lat="45.54016" lon="3.40274">
        <ele>703</ele>
        <time>2025-01-29T08:37:48Z</time>
      </trkpt>
      <trkpt lat="45.54043" lon="3.40279">
        <ele>701</ele>
        <time>2025-01-29T08:37:52Z</time>
      </trkpt>
      <trkpt lat="45.54061" lon="3.40291">
        <ele>699</ele>
        <time>2025-01-29T08:37:56Z</time>
      </trkpt>
      <trkpt lat="45.54069" lon="3.40297">
        <ele>697</ele>
        <time>2025-01-29T08:37:58Z</time>
      </trkpt>
      <trkpt lat="45.54086" lon="3.40295">
        <ele>695</ele>
        <time>2025-01-29T08:38:02Z</time>
      </trkpt>
      <trkpt lat="45.54098" lon="3.40288">
        <ele>693</ele>
        <time>2025-01-29T08:38:06Z</time>
      </trkpt>
      <trkpt lat="45.54104" lon="3.40282">
        <ele>693</ele>
        <time>2025-01-29T08:38:08Z</time>
      </trkpt>
      <trkpt lat="45.5413" lon="3.40264">
        <ele>688</ele>
        <time>2025-01-29T08:38:16Z</time>
      </trkpt>
      <trkpt lat="45.54198" lon="3.40184">
        <ele>678</ele>
        <time>2025-01-29T08:38:30Z</time>
      </trkpt>
      <trkpt lat="45.54218" lon="3.40176">
        <ele>675</ele>
        <time>2025-01-29T08:38:34Z</time>
      </trkpt>
      <trkpt lat="45.54287" lon="3.40176">
        <ele>666</ele>
        <time>2025-01-29T08:38:50Z</time>
      </trkpt>
      <trkpt lat="45.54327" lon="3.40172">
        <ele>660</ele>
        <time>2025-01-29T08:39:00Z</time>
      </trkpt>
      <trkpt lat="45.54332" lon="3.40172">
        <ele>659</ele>
        <time>2025-01-29T08:39:02Z</time>
      </trkpt>
      <trkpt lat="45.5434" lon="3.40177">
        <ele>656</ele>
        <time>2025-01-29T08:39:06Z</time>
      </trkpt>
      <trkpt lat="45.54344" lon="3.40179">
        <ele>656</ele>
        <time>2025-01-29T08:39:08Z</time>
      </trkpt>
      <trkpt lat="45.54344" lon="3.40186">
        <ele>656</ele>
        <time>2025-01-29T08:39:10Z</time>
      </trkpt>
      <trkpt lat="45.54344" lon="3.40194">
        <ele>656</ele>
        <time>2025-01-29T08:39:12Z</time>
      </trkpt>
      <trkpt lat="45.54346" lon="3.40208">
        <ele>656</ele>
        <time>2025-01-29T08:39:16Z</time>
      </trkpt>
      <trkpt lat="45.54349" lon="3.40215">
        <ele>656</ele>
        <time>2025-01-29T08:39:18Z</time>
      </trkpt>
      <trkpt lat="45.54353" lon="3.4022">
        <ele>656</ele>
        <time>2025-01-29T08:39:20Z</time>
      </trkpt>
      <trkpt lat="45.54359" lon="3.40225">
        <ele>656</ele>
        <time>2025-01-29T08:39:22Z</time>
      </trkpt>
      <trkpt lat="45.54366" lon="3.40225">
        <ele>656</ele>
        <time>2025-01-29T08:39:24Z</time>
      </trkpt>
      <trkpt lat="45.54403" lon="3.40203">
        <ele>657</ele>
        <time>2025-01-29T08:39:36Z</time>
      </trkpt>
      <trkpt lat="45.5442" lon="3.40185">
        <ele>658</ele>
        <time>2025-01-29T08:39:42Z</time>
      </trkpt>
      <trkpt lat="45.54425" lon="3.4018">
        <ele>658</ele>
        <time>2025-01-29T08:39:44Z</time>
      </trkpt>
      <trkpt lat="45.54439" lon="3.40164">
        <ele>660</ele>
        <time>2025-01-29T08:39:50Z</time>
      </trkpt>
      <trkpt lat="45.54475" lon="3.40113">
        <ele>663</ele>
        <time>2025-01-29T08:40:06Z</time>
      </trkpt>
      <trkpt lat="45.54512" lon="3.4008">
        <ele>666</ele>
        <time>2025-01-29T08:40:20Z</time>
      </trkpt>
      <trkpt lat="45.54521" lon="3.40068">
        <ele>669</ele>
        <time>2025-01-29T08:40:26Z</time>
      </trkpt>
      <trkpt lat="45.54524" lon="3.40072">
        <ele>670</ele>
        <time>2025-01-29T08:40:28Z</time>
      </trkpt>
      <trkpt lat="45.54524" lon="3.40078">
        <ele>671</ele>
        <time>2025-01-29T08:40:30Z</time>
      </trkpt>
      <trkpt lat="45.54508" lon="3.4012">
        <ele>676</ele>
        <time>2025-01-29T08:40:46Z</time>
      </trkpt>
      <trkpt lat="45.54506" lon="3.40126">
        <ele>676</ele>
        <time>2025-01-29T08:40:48Z</time>
      </trkpt>
      <trkpt lat="45.54504" lon="3.40131">
        <ele>676</ele>
        <time>2025-01-29T08:40:50Z</time>
      </trkpt>
      <trkpt lat="45.545" lon="3.40141">
        <ele>678</ele>
        <time>2025-01-29T08:40:54Z</time>
      </trkpt>
      <trkpt lat="45.54498" lon="3.40146">
        <ele>678</ele>
        <time>2025-01-29T08:40:56Z</time>
      </trkpt>
      <trkpt lat="45.54488" lon="3.40192">
        <ele>679</ele>
        <time>2025-01-29T08:41:08Z</time>
      </trkpt>
      <trkpt lat="45.54486" lon="3.40245">
        <ele>678</ele>
        <time>2025-01-29T08:41:20Z</time>
      </trkpt>
      <trkpt lat="45.54486" lon="3.40253">
        <ele>678</ele>
        <time>2025-01-29T08:41:22Z</time>
      </trkpt>
      <trkpt lat="45.54489" lon="3.40281">
        <ele>679</ele>
        <time>2025-01-29T08:41:28Z</time>
      </trkpt>
      <trkpt lat="45.54491" lon="3.40291">
        <ele>681</ele>
        <time>2025-01-29T08:41:30Z</time>
      </trkpt>
      <trkpt lat="45.5449" lon="3.403">
        <ele>681</ele>
        <time>2025-01-29T08:41:32Z</time>
      </trkpt>
      <trkpt lat="45.54488" lon="3.40347">
        <ele>681</ele>
        <time>2025-01-29T08:41:42Z</time>
      </trkpt>
      <trkpt lat="45.5448" lon="3.40382">
        <ele>683</ele>
        <time>2025-01-29T08:41:50Z</time>
      </trkpt>
      <trkpt lat="45.54481" lon="3.40401">
        <ele>684</ele>
        <time>2025-01-29T08:41:54Z</time>
      </trkpt>
      <trkpt lat="45.54486" lon="3.40455">
        <ele>688</ele>
        <time>2025-01-29T08:42:06Z</time>
      </trkpt>
      <trkpt lat="45.54489" lon="3.40473">
        <ele>691</ele>
        <time>2025-01-29T08:42:10Z</time>
      </trkpt>
      <trkpt lat="45.54492" lon="3.40481">
        <ele>692</ele>
        <time>2025-01-29T08:42:12Z</time>
      </trkpt>
      <trkpt lat="45.54496" lon="3.40485">
        <ele>693</ele>
        <time>2025-01-29T08:42:14Z</time>
      </trkpt>
      <trkpt lat="45.54521" lon="3.40476">
        <ele>695</ele>
        <time>2025-01-29T08:42:22Z</time>
      </trkpt>
      <trkpt lat="45.54574" lon="3.40473">
        <ele>694</ele>
        <time>2025-01-29T08:42:36Z</time>
      </trkpt>
      <trkpt lat="45.54603" lon="3.40479">
        <ele>693</ele>
        <time>2025-01-29T08:42:42Z</time>
      </trkpt>
      <trkpt lat="45.54613" lon="3.40484">
        <ele>692</ele>
        <time>2025-01-29T08:42:44Z</time>
      </trkpt>
      <trkpt lat="45.54623" lon="3.40492">
        <ele>691</ele>
        <time>2025-01-29T08:42:46Z</time>
      </trkpt>
      <trkpt lat="45.54689" lon="3.40577">
        <ele>688</ele>
        <time>2025-01-29T08:43:04Z</time>
      </trkpt>
      <trkpt lat="45.54704" lon="3.4059">
        <ele>689</ele>
        <time>2025-01-29T08:43:08Z</time>
      </trkpt>
      <trkpt lat="45.54728" lon="3.40628">
        <ele>690</ele>
        <time>2025-01-29T08:43:16Z</time>
      </trkpt>
      <trkpt lat="45.54732" lon="3.40638">
        <ele>691</ele>
        <time>2025-01-29T08:43:18Z</time>
      </trkpt>
      <trkpt lat="45.54737" lon="3.40659">
        <ele>692</ele>
        <time>2025-01-29T08:43:22Z</time>
      </trkpt>
      <trkpt lat="45.54737" lon="3.4067">
        <ele>692</ele>
        <time>2025-01-29T08:43:24Z</time>
      </trkpt>
      <trkpt lat="45.54728" lon="3.40697">
        <ele>693</ele>
        <time>2025-01-29T08:43:30Z</time>
      </trkpt>
      <trkpt lat="45.54726" lon="3.40706">
        <ele>693</ele>
        <time>2025-01-29T08:43:32Z</time>
      </trkpt>
      <trkpt lat="45.54697" lon="3.40743">
        <ele>694</ele>
        <time>2025-01-29T08:43:42Z</time>
      </trkpt>
      <trkpt lat="45.54695" lon="3.40753">
        <ele>694</ele>
        <time>2025-01-29T08:43:44Z</time>
      </trkpt>
      <trkpt lat="45.54695" lon="3.40762">
        <ele>694</ele>
        <time>2025-01-29T08:43:46Z</time>
      </trkpt>
      <trkpt lat="45.54703" lon="3.40781">
        <ele>694</ele>
        <time>2025-01-29T08:43:50Z</time>
      </trkpt>
      <trkpt lat="45.54725" lon="3.40806">
        <ele>697</ele>
        <time>2025-01-29T08:43:58Z</time>
      </trkpt>
      <trkpt lat="45.54737" lon="3.40833">
        <ele>697</ele>
        <time>2025-01-29T08:44:04Z</time>
      </trkpt>
      <trkpt lat="45.54772" lon="3.40892">
        <ele>699</ele>
        <time>2025-01-29T08:44:18Z</time>
      </trkpt>
      <trkpt lat="45.54837" lon="3.40947">
        <ele>701</ele>
        <time>2025-01-29T08:44:38Z</time>
      </trkpt>
      <trkpt lat="45.54855" lon="3.40967">
        <ele>701</ele>
        <time>2025-01-29T08:44:44Z</time>
      </trkpt>
      <trkpt lat="45.54871" lon="3.41003">
        <ele>704</ele>
        <time>2025-01-29T08:44:52Z</time>
      </trkpt>
      <trkpt lat="45.54879" lon="3.41033">
        <ele>706</ele>
        <time>2025-01-29T08:44:58Z</time>
      </trkpt>
      <trkpt lat="45.54899" lon="3.41139">
        <ele>701</ele>
        <time>2025-01-29T08:45:20Z</time>
      </trkpt>
      <trkpt lat="45.54899" lon="3.41162">
        <ele>702</ele>
        <time>2025-01-29T08:45:24Z</time>
      </trkpt>
      <trkpt lat="45.549" lon="3.41173">
        <ele>702</ele>
        <time>2025-01-29T08:45:26Z</time>
      </trkpt>
      <trkpt lat="45.54892" lon="3.41212">
        <ele>702</ele>
        <time>2025-01-29T08:45:32Z</time>
      </trkpt>
      <trkpt lat="45.54893" lon="3.41235">
        <ele>700</ele>
        <time>2025-01-29T08:45:36Z</time>
      </trkpt>
      <trkpt lat="45.54904" lon="3.41254">
        <ele>703</ele>
        <time>2025-01-29T08:45:40Z</time>
      </trkpt>
      <trkpt lat="45.54931" lon="3.41297">
        <ele>709</ele>
        <time>2025-01-29T08:45:50Z</time>
      </trkpt>
      <trkpt lat="45.54934" lon="3.41307">
        <ele>709</ele>
        <time>2025-01-29T08:45:52Z</time>
      </trkpt>
      <trkpt lat="45.54936" lon="3.41338">
        <ele>715</ele>
        <time>2025-01-29T08:46:04Z</time>
      </trkpt>
      <trkpt lat="45.54936" lon="3.41344">
        <ele>716</ele>
        <time>2025-01-29T08:46:06Z</time>
      </trkpt>
      <trkpt lat="45.54935" lon="3.41351">
        <ele>717</ele>
        <time>2025-01-29T08:46:08Z</time>
      </trkpt>
      <trkpt lat="45.54934" lon="3.41357">
        <ele>717</ele>
        <time>2025-01-29T08:46:10Z</time>
      </trkpt>
      <trkpt lat="45.54929" lon="3.41366">
        <ele>718</ele>
        <time>2025-01-29T08:46:14Z</time>
      </trkpt>
      <trkpt lat="45.54926" lon="3.4138">
        <ele>718</ele>
        <time>2025-01-29T08:46:20Z</time>
      </trkpt>
      <trkpt lat="45.54926" lon="3.41367">
        <ele>720</ele>
        <time>2025-01-29T08:47:40Z</time>
      </trkpt>
      <trkpt lat="45.54927" lon="3.41362">
        <ele>720</ele>
        <time>2025-01-29T08:47:42Z</time>
      </trkpt>
      <trkpt lat="45.5493" lon="3.41361">
        <ele>720</ele>
        <time>2025-01-29T08:47:44Z</time>
      </trkpt>
      <trkpt lat="45.54936" lon="3.41359">
        <ele>721</ele>
        <time>2025-01-29T08:47:48Z</time>
      </trkpt>
      <trkpt lat="45.5494" lon="3.41362">
        <ele>722</ele>
        <time>2025-01-29T08:47:52Z</time>
      </trkpt>
      <trkpt lat="45.54942" lon="3.41378">
        <ele>723</ele>
        <time>2025-01-29T08:48:04Z</time>
      </trkpt>
      <trkpt lat="45.54943" lon="3.4139">
        <ele>723</ele>
        <time>2025-01-29T08:48:08Z</time>
      </trkpt>
      <trkpt lat="45.54956" lon="3.41416">
        <ele>720</ele>
        <time>2025-01-29T08:48:40Z</time>
      </trkpt>
      <trkpt lat="45.54962" lon="3.41426">
        <ele>719</ele>
        <time>2025-01-29T08:48:48Z</time>
      </trkpt>
      <trkpt lat="45.54964" lon="3.41426">
        <ele>719</ele>
        <time>2025-01-29T08:48:50Z</time>
      </trkpt>
      <trkpt lat="45.54974" lon="3.41421">
        <ele>718</ele>
        <time>2025-01-29T08:49:42Z</time>
      </trkpt>
      <trkpt lat="45.54982" lon="3.41423">
        <ele>720</ele>
        <time>2025-01-29T08:49:48Z</time>
      </trkpt>
      <trkpt lat="45.54996" lon="3.41422">
        <ele>724</ele>
        <time>2025-01-29T08:49:54Z</time>
      </trkpt>
      <trkpt lat="45.55008" lon="3.4142">
        <ele>725</ele>
        <time>2025-01-29T08:49:58Z</time>
      </trkpt>
      <trkpt lat="45.55016" lon="3.41418">
        <ele>725</ele>
        <time>2025-01-29T08:50:00Z</time>
      </trkpt>
      <trkpt lat="45.55036" lon="3.41403">
        <ele>720</ele>
        <time>2025-01-29T08:50:08Z</time>
      </trkpt>
      <trkpt lat="45.55042" lon="3.41399">
        <ele>719</ele>
        <time>2025-01-29T08:50:10Z</time>
      </trkpt>
      <trkpt lat="45.55049" lon="3.41396">
        <ele>717</ele>
        <time>2025-01-29T08:50:12Z</time>
      </trkpt>
      <trkpt lat="45.5506" lon="3.4139">
        <ele>714</ele>
        <time>2025-01-29T08:50:16Z</time>
      </trkpt>
      <trkpt lat="45.55066" lon="3.41388">
        <ele>714</ele>
        <time>2025-01-29T08:50:18Z</time>
      </trkpt>
      <trkpt lat="45.55072" lon="3.41387">
        <ele>713</ele>
        <time>2025-01-29T08:50:20Z</time>
      </trkpt>
      <trkpt lat="45.55079" lon="3.41386">
        <ele>713</ele>
        <time>2025-01-29T08:50:22Z</time>
      </trkpt>
      <trkpt lat="45.55084" lon="3.41385">
        <ele>712</ele>
        <time>2025-01-29T08:50:24Z</time>
      </trkpt>
      <trkpt lat="45.55101" lon="3.41381">
        <ele>709</ele>
        <time>2025-01-29T08:50:30Z</time>
      </trkpt>
      <trkpt lat="45.55165" lon="3.41372">
        <ele>709</ele>
        <time>2025-01-29T08:50:42Z</time>
      </trkpt>
      <trkpt lat="45.55183" lon="3.41379">
        <ele>710</ele>
        <time>2025-01-29T08:50:46Z</time>
      </trkpt>
      <trkpt lat="45.55188" lon="3.41387">
        <ele>709</ele>
        <time>2025-01-29T08:50:48Z</time>
      </trkpt>
      <trkpt lat="45.55193" lon="3.41396">
        <ele>707</ele>
        <time>2025-01-29T08:50:50Z</time>
      </trkpt>
      <trkpt lat="45.55204" lon="3.41426">
        <ele>703</ele>
        <time>2025-01-29T08:50:54Z</time>
      </trkpt>
      <trkpt lat="45.55211" lon="3.41441">
        <ele>702</ele>
        <time>2025-01-29T08:50:56Z</time>
      </trkpt>
      <trkpt lat="45.55222" lon="3.4145">
        <ele>700</ele>
        <time>2025-01-29T08:50:58Z</time>
      </trkpt>
      <trkpt lat="45.55305" lon="3.41486">
        <ele>695</ele>
        <time>2025-01-29T08:51:12Z</time>
      </trkpt>
      <trkpt lat="45.55313" lon="3.41491">
        <ele>694</ele>
        <time>2025-01-29T08:51:16Z</time>
      </trkpt>
      <trkpt lat="45.55316" lon="3.41493">
        <ele>695</ele>
        <time>2025-01-29T08:51:18Z</time>
      </trkpt>
      <trkpt lat="45.5532" lon="3.41489">
        <ele>696</ele>
        <time>2025-01-29T08:51:32Z</time>
      </trkpt>
      <trkpt lat="45.55326" lon="3.41493">
        <ele>696</ele>
        <time>2025-01-29T08:51:34Z</time>
      </trkpt>
      <trkpt lat="45.55332" lon="3.41495">
        <ele>696</ele>
        <time>2025-01-29T08:51:36Z</time>
      </trkpt>
      <trkpt lat="45.55341" lon="3.41506">
        <ele>695</ele>
        <time>2025-01-29T08:51:40Z</time>
      </trkpt>
      <trkpt lat="45.55346" lon="3.41509">
        <ele>695</ele>
        <time>2025-01-29T08:51:42Z</time>
      </trkpt>
      <trkpt lat="45.5535" lon="3.41512">
        <ele>695</ele>
        <time>2025-01-29T08:51:44Z</time>
      </trkpt>
      <trkpt lat="45.55362" lon="3.41522">
        <ele>695</ele>
        <time>2025-01-29T08:51:50Z</time>
      </trkpt>
      <trkpt lat="45.55359" lon="3.41524">
        <ele>694</ele>
        <time>2025-01-29T08:51:58Z</time>
      </trkpt>
      <trkpt lat="45.55356" lon="3.41518">
        <ele>693</ele>
        <time>2025-01-29T08:52:04Z</time>
      </trkpt>
      <trkpt lat="45.55347" lon="3.41513">
        <ele>693</ele>
        <time>2025-01-29T08:52:08Z</time>
      </trkpt>
      <trkpt lat="45.55325" lon="3.41492">
        <ele>693</ele>
        <time>2025-01-29T08:52:20Z</time>
      </trkpt>
      <trkpt lat="45.55321" lon="3.41491">
        <ele>693</ele>
        <time>2025-01-29T08:52:22Z</time>
      </trkpt>
      <trkpt lat="45.55318" lon="3.41492">
        <ele>693</ele>
        <time>2025-01-29T08:52:24Z</time>
      </trkpt>
      <trkpt lat="45.55319" lon="3.41495">
        <ele>693</ele>
        <time>2025-01-29T08:52:26Z</time>
      </trkpt>
      <trkpt lat="45.55322" lon="3.41502">
        <ele>695</ele>
        <time>2025-01-29T08:53:08Z</time>
      </trkpt>
      <trkpt lat="45.55323" lon="3.41509">
        <ele>697</ele>
        <time>2025-01-29T08:53:10Z</time>
      </trkpt>
      <trkpt lat="45.55326" lon="3.41515">
        <ele>698</ele>
        <time>2025-01-29T08:53:12Z</time>
      </trkpt>
      <trkpt lat="45.55329" lon="3.41524">
        <ele>699</ele>
        <time>2025-01-29T08:53:14Z</time>
      </trkpt>
      <trkpt lat="45.55347" lon="3.41568">
        <ele>701</ele>
        <time>2025-01-29T08:53:26Z</time>
      </trkpt>
      <trkpt lat="45.55355" lon="3.41593">
        <ele>702</ele>
        <time>2025-01-29T08:53:32Z</time>
      </trkpt>
      <trkpt lat="45.55357" lon="3.41599">
        <ele>702</ele>
        <time>2025-01-29T08:53:34Z</time>
      </trkpt>
      <trkpt lat="45.55366" lon="3.41637">
        <ele>707</ele>
        <time>2025-01-29T08:53:48Z</time>
      </trkpt>
      <trkpt lat="45.55366" lon="3.41642">
        <ele>709</ele>
        <time>2025-01-29T08:53:50Z</time>
      </trkpt>
      <trkpt lat="45.55364" lon="3.41665">
        <ele>709</ele>
        <time>2025-01-29T08:53:54Z</time>
      </trkpt>
      <trkpt lat="45.55358" lon="3.41679">
        <ele>708</ele>
        <time>2025-01-29T08:53:56Z</time>
      </trkpt>
      <trkpt lat="45.55349" lon="3.41691">
        <ele>706</ele>
        <time>2025-01-29T08:53:58Z</time>
      </trkpt>
      <trkpt lat="45.55341" lon="3.41699">
        <ele>704</ele>
        <time>2025-01-29T08:54:00Z</time>
      </trkpt>
      <trkpt lat="45.55329" lon="3.41707">
        <ele>701</ele>
        <time>2025-01-29T08:54:02Z</time>
      </trkpt>
      <trkpt lat="45.55319" lon="3.41713">
        <ele>698</ele>
        <time>2025-01-29T08:54:04Z</time>
      </trkpt>
      <trkpt lat="45.55308" lon="3.41721">
        <ele>696</ele>
        <time>2025-01-29T08:54:06Z</time>
      </trkpt>
      <trkpt lat="45.55271" lon="3.41751">
        <ele>691</ele>
        <time>2025-01-29T08:54:12Z</time>
      </trkpt>
      <trkpt lat="45.5526" lon="3.41757">
        <ele>689</ele>
        <time>2025-01-29T08:54:14Z</time>
      </trkpt>
      <trkpt lat="45.55248" lon="3.41764">
        <ele>686</ele>
        <time>2025-01-29T08:54:16Z</time>
      </trkpt>
      <trkpt lat="45.55238" lon="3.41773">
        <ele>684</ele>
        <time>2025-01-29T08:54:18Z</time>
      </trkpt>
      <trkpt lat="45.55207" lon="3.41798">
        <ele>682</ele>
        <time>2025-01-29T08:54:24Z</time>
      </trkpt>
      <trkpt lat="45.5519" lon="3.418">
        <ele>684</ele>
        <time>2025-01-29T08:54:28Z</time>
      </trkpt>
      <trkpt lat="45.55171" lon="3.41812">
        <ele>683</ele>
        <time>2025-01-29T08:54:34Z</time>
      </trkpt>
      <trkpt lat="45.55161" lon="3.41813">
        <ele>682</ele>
        <time>2025-01-29T08:54:36Z</time>
      </trkpt>
      <trkpt lat="45.55152" lon="3.41812">
        <ele>680</ele>
        <time>2025-01-29T08:54:38Z</time>
      </trkpt>
      <trkpt lat="45.55146" lon="3.41811">
        <ele>678</ele>
        <time>2025-01-29T08:54:40Z</time>
      </trkpt>
      <trkpt lat="45.55145" lon="3.4181">
        <ele>677</ele>
        <time>2025-01-29T08:54:42Z</time>
      </trkpt>
      <trkpt lat="45.55144" lon="3.41808">
        <ele>676</ele>
        <time>2025-01-29T08:54:46Z</time>
      </trkpt>
      <trkpt lat="45.55118" lon="3.41818">
        <ele>677</ele>
        <time>2025-01-29T08:54:54Z</time>
      </trkpt>
      <trkpt lat="45.551" lon="3.41813">
        <ele>675</ele>
        <time>2025-01-29T08:55:00Z</time>
      </trkpt>
      <trkpt lat="45.55094" lon="3.41811">
        <ele>674</ele>
        <time>2025-01-29T08:55:02Z</time>
      </trkpt>
      <trkpt lat="45.55085" lon="3.41803">
        <ele>673</ele>
        <time>2025-01-29T08:55:06Z</time>
      </trkpt>
      <trkpt lat="45.55074" lon="3.41786">
        <ele>676</ele>
        <time>2025-01-29T08:55:12Z</time>
      </trkpt>
      <trkpt lat="45.5505" lon="3.41769">
        <ele>684</ele>
        <time>2025-01-29T08:55:24Z</time>
      </trkpt>
      <trkpt lat="45.55047" lon="3.41769">
        <ele>686</ele>
        <time>2025-01-29T08:55:26Z</time>
      </trkpt>
      <trkpt lat="45.55039" lon="3.41762">
        <ele>690</ele>
        <time>2025-01-29T08:55:30Z</time>
      </trkpt>
      <trkpt lat="45.5503" lon="3.4176">
        <ele>692</ele>
        <time>2025-01-29T08:55:34Z</time>
      </trkpt>
      <trkpt lat="45.55024" lon="3.41757">
        <ele>694</ele>
        <time>2025-01-29T08:55:38Z</time>
      </trkpt>
      <trkpt lat="45.55018" lon="3.41755">
        <ele>695</ele>
        <time>2025-01-29T08:55:40Z</time>
      </trkpt>
      <trkpt lat="45.55014" lon="3.41754">
        <ele>696</ele>
        <time>2025-01-29T08:55:42Z</time>
      </trkpt>
      <trkpt lat="45.55009" lon="3.41753">
        <ele>698</ele>
        <time>2025-01-29T08:55:44Z</time>
      </trkpt>
      <trkpt lat="45.55003" lon="3.41752">
        <ele>699</ele>
        <time>2025-01-29T08:55:46Z</time>
      </trkpt>
      <trkpt lat="45.54989" lon="3.41734">
        <ele>700</ele>
        <time>2025-01-29T08:55:54Z</time>
      </trkpt>
      <trkpt lat="45.54986" lon="3.41729">
        <ele>700</ele>
        <time>2025-01-29T08:55:56Z</time>
      </trkpt>
      <trkpt lat="45.54976" lon="3.41723">
        <ele>700</ele>
        <time>2025-01-29T08:56:02Z</time>
      </trkpt>
      <trkpt lat="45.54973" lon="3.41719">
        <ele>701</ele>
        <time>2025-01-29T08:56:04Z</time>
      </trkpt>
      <trkpt lat="45.54964" lon="3.41712">
        <ele>703</ele>
        <time>2025-01-29T08:56:10Z</time>
      </trkpt>
      <trkpt lat="45.54961" lon="3.4171">
        <ele>704</ele>
        <time>2025-01-29T08:56:12Z</time>
      </trkpt>
      <trkpt lat="45.54957" lon="3.41708">
        <ele>705</ele>
        <time>2025-01-29T08:56:14Z</time>
      </trkpt>
      <trkpt lat="45.54937" lon="3.41704">
        <ele>707</ele>
        <time>2025-01-29T08:56:22Z</time>
      </trkpt>
      <trkpt lat="45.54932" lon="3.41702">
        <ele>707</ele>
        <time>2025-01-29T08:56:24Z</time>
      </trkpt>
      <trkpt lat="45.54868" lon="3.41685">
        <ele>712</ele>
        <time>2025-01-29T08:57:04Z</time>
      </trkpt>
      <trkpt lat="45.54864" lon="3.41682">
        <ele>713</ele>
        <time>2025-01-29T09:00:36Z</time>
      </trkpt>
      <trkpt lat="45.54854" lon="3.41681">
        <ele>714</ele>
        <time>2025-01-29T09:00:40Z</time>
      </trkpt>
      <trkpt lat="45.54836" lon="3.41665">
        <ele>716</ele>
        <time>2025-01-29T09:00:48Z</time>
      </trkpt>
      <trkpt lat="45.54813" lon="3.41651">
        <ele>720</ele>
        <time>2025-01-29T09:00:58Z</time>
      </trkpt>
      <trkpt lat="45.54793" lon="3.41646">
        <ele>722</ele>
        <time>2025-01-29T09:01:32Z</time>
      </trkpt>
      <trkpt lat="45.54786" lon="3.41643">
        <ele>723</ele>
        <time>2025-01-29T09:01:36Z</time>
      </trkpt>
      <trkpt lat="45.54779" lon="3.41645">
        <ele>724</ele>
        <time>2025-01-29T09:01:40Z</time>
      </trkpt>
      <trkpt lat="45.54768" lon="3.41653">
        <ele>724</ele>
        <time>2025-01-29T09:01:46Z</time>
      </trkpt>
      <trkpt lat="45.54737" lon="3.41685">
        <ele>730</ele>
        <time>2025-01-29T09:02:02Z</time>
      </trkpt>
      <trkpt lat="45.54723" lon="3.41694">
        <ele>730</ele>
        <time>2025-01-29T09:02:36Z</time>
      </trkpt>
      <trkpt lat="45.54717" lon="3.41696">
        <ele>729</ele>
        <time>2025-01-29T09:02:38Z</time>
      </trkpt>
      <trkpt lat="45.5464" lon="3.41695">
        <ele>721</ele>
        <time>2025-01-29T09:02:52Z</time>
      </trkpt>
      <trkpt lat="45.54631" lon="3.41694">
        <ele>720</ele>
        <time>2025-01-29T09:02:54Z</time>
      </trkpt>
      <trkpt lat="45.5459" lon="3.41687">
        <ele>723</ele>
        <time>2025-01-29T09:03:04Z</time>
      </trkpt>
      <trkpt lat="45.54567" lon="3.4167">
        <ele>725</ele>
        <time>2025-01-29T09:03:10Z</time>
      </trkpt>
      <trkpt lat="45.5454" lon="3.41649">
        <ele>729</ele>
        <time>2025-01-29T09:03:18Z</time>
      </trkpt>
      <trkpt lat="45.54534" lon="3.41647">
        <ele>730</ele>
        <time>2025-01-29T09:03:20Z</time>
      </trkpt>
      <trkpt lat="45.54529" lon="3.41648">
        <ele>731</ele>
        <time>2025-01-29T09:03:22Z</time>
      </trkpt>
      <trkpt lat="45.54526" lon="3.41653">
        <ele>731</ele>
        <time>2025-01-29T09:03:24Z</time>
      </trkpt>
      <trkpt lat="45.54526" lon="3.41663">
        <ele>731</ele>
        <time>2025-01-29T09:03:26Z</time>
      </trkpt>
      <trkpt lat="45.54573" lon="3.41783">
        <ele>727</ele>
        <time>2025-01-29T09:03:48Z</time>
      </trkpt>
      <trkpt lat="45.54583" lon="3.41792">
        <ele>728</ele>
        <time>2025-01-29T09:03:56Z</time>
      </trkpt>
      <trkpt lat="45.54641" lon="3.41793">
        <ele>726</ele>
        <time>2025-01-29T09:04:12Z</time>
      </trkpt>
      <trkpt lat="45.5465" lon="3.41796">
        <ele>724</ele>
        <time>2025-01-29T09:04:14Z</time>
      </trkpt>
      <trkpt lat="45.54659" lon="3.41796">
        <ele>721</ele>
        <time>2025-01-29T09:04:16Z</time>
      </trkpt>
      <trkpt lat="45.54667" lon="3.41795">
        <ele>718</ele>
        <time>2025-01-29T09:04:18Z</time>
      </trkpt>
      <trkpt lat="45.54677" lon="3.41795">
        <ele>715</ele>
        <time>2025-01-29T09:04:20Z</time>
      </trkpt>
      <trkpt lat="45.54697" lon="3.41801">
        <ele>713</ele>
        <time>2025-01-29T09:04:24Z</time>
      </trkpt>
      <trkpt lat="45.54712" lon="3.41816">
        <ele>715</ele>
        <time>2025-01-29T09:04:28Z</time>
      </trkpt>
      <trkpt lat="45.54721" lon="3.41822">
        <ele>717</ele>
        <time>2025-01-29T09:04:30Z</time>
      </trkpt>
      <trkpt lat="45.5476" lon="3.41843">
        <ele>719</ele>
        <time>2025-01-29T09:04:36Z</time>
      </trkpt>
      <trkpt lat="45.54774" lon="3.41847">
        <ele>714</ele>
        <time>2025-01-29T09:04:38Z</time>
      </trkpt>
      <trkpt lat="45.54785" lon="3.4185">
        <ele>710</ele>
        <time>2025-01-29T09:04:40Z</time>
      </trkpt>
      <trkpt lat="45.54796" lon="3.41854">
        <ele>706</ele>
        <time>2025-01-29T09:04:42Z</time>
      </trkpt>
      <trkpt lat="45.54807" lon="3.41853">
        <ele>702</ele>
        <time>2025-01-29T09:04:44Z</time>
      </trkpt>
      <trkpt lat="45.54825" lon="3.41852">
        <ele>697</ele>
        <time>2025-01-29T09:04:48Z</time>
      </trkpt>
      <trkpt lat="45.54834" lon="3.41852">
        <ele>695</ele>
        <time>2025-01-29T09:04:50Z</time>
      </trkpt>
      <trkpt lat="45.54848" lon="3.41854">
        <ele>692</ele>
        <time>2025-01-29T09:04:52Z</time>
      </trkpt>
      <trkpt lat="45.54862" lon="3.41856">
        <ele>690</ele>
        <time>2025-01-29T09:04:54Z</time>
      </trkpt>
      <trkpt lat="45.54879" lon="3.41867">
        <ele>686</ele>
        <time>2025-01-29T09:04:58Z</time>
      </trkpt>
      <trkpt lat="45.54894" lon="3.41885">
        <ele>682</ele>
        <time>2025-01-29T09:05:06Z</time>
      </trkpt>
      <trkpt lat="45.54937" lon="3.41912">
        <ele>682</ele>
        <time>2025-01-29T09:05:20Z</time>
      </trkpt>
      <trkpt lat="45.54943" lon="3.41915">
        <ele>681</ele>
        <time>2025-01-29T09:05:26Z</time>
      </trkpt>
      <trkpt lat="45.54955" lon="3.41918">
        <ele>682</ele>
        <time>2025-01-29T09:05:30Z</time>
      </trkpt>
      <trkpt lat="45.54998" lon="3.4193">
        <ele>679</ele>
        <time>2025-01-29T09:05:42Z</time>
      </trkpt>
      <trkpt lat="45.55028" lon="3.41928">
        <ele>684</ele>
        <time>2025-01-29T09:05:52Z</time>
      </trkpt>
      <trkpt lat="45.55044" lon="3.4192">
        <ele>682</ele>
        <time>2025-01-29T09:06:06Z</time>
      </trkpt>
      <trkpt lat="45.55086" lon="3.41929">
        <ele>680</ele>
        <time>2025-01-29T09:06:14Z</time>
      </trkpt>
      <trkpt lat="45.55093" lon="3.41934">
        <ele>678</ele>
        <time>2025-01-29T09:06:16Z</time>
      </trkpt>
      <trkpt lat="45.551" lon="3.41943">
        <ele>676</ele>
        <time>2025-01-29T09:06:18Z</time>
      </trkpt>
      <trkpt lat="45.55122" lon="3.4195">
        <ele>671</ele>
        <time>2025-01-29T09:06:24Z</time>
      </trkpt>
      <trkpt lat="45.55152" lon="3.41955">
        <ele>669</ele>
        <time>2025-01-29T09:06:30Z</time>
      </trkpt>
      <trkpt lat="45.55175" lon="3.41962">
        <ele>672</ele>
        <time>2025-01-29T09:06:36Z</time>
      </trkpt>
      <trkpt lat="45.55192" lon="3.41962">
        <ele>674</ele>
        <time>2025-01-29T09:06:42Z</time>
      </trkpt>
      <trkpt lat="45.55245" lon="3.41956">
        <ele>670</ele>
        <time>2025-01-29T09:06:52Z</time>
      </trkpt>
      <trkpt lat="45.55268" lon="3.41955">
        <ele>667</ele>
        <time>2025-01-29T09:06:56Z</time>
      </trkpt>
      <trkpt lat="45.55321" lon="3.41928">
        <ele>663</ele>
        <time>2025-01-29T09:07:10Z</time>
      </trkpt>
      <trkpt lat="45.55329" lon="3.41924">
        <ele>661</ele>
        <time>2025-01-29T09:07:12Z</time>
      </trkpt>
      <trkpt lat="45.55334" lon="3.41919">
        <ele>659</ele>
        <time>2025-01-29T09:07:14Z</time>
      </trkpt>
      <trkpt lat="45.55335" lon="3.41916">
        <ele>659</ele>
        <time>2025-01-29T09:07:16Z</time>
      </trkpt>
      <trkpt lat="45.55336" lon="3.41908">
        <ele>659</ele>
        <time>2025-01-29T09:07:44Z</time>
      </trkpt>
      <trkpt lat="45.55337" lon="3.41901">
        <ele>659</ele>
        <time>2025-01-29T09:07:46Z</time>
      </trkpt>
      <trkpt lat="45.55334" lon="3.41895">
        <ele>658</ele>
        <time>2025-01-29T09:07:48Z</time>
      </trkpt>
      <trkpt lat="45.55321" lon="3.41887">
        <ele>652</ele>
        <time>2025-01-29T09:07:58Z</time>
      </trkpt>
      <trkpt lat="45.55315" lon="3.41886">
        <ele>650</ele>
        <time>2025-01-29T09:08:02Z</time>
      </trkpt>
      <trkpt lat="45.55314" lon="3.41874">
        <ele>651</ele>
        <time>2025-01-29T09:08:12Z</time>
      </trkpt>
      <trkpt lat="45.55325" lon="3.41868">
        <ele>652</ele>
        <time>2025-01-29T09:08:16Z</time>
      </trkpt>
      <trkpt lat="45.5533" lon="3.41864">
        <ele>652</ele>
        <time>2025-01-29T09:08:18Z</time>
      </trkpt>
      <trkpt lat="45.55361" lon="3.41852">
        <ele>655</ele>
        <time>2025-01-29T09:08:32Z</time>
      </trkpt>
      <trkpt lat="45.55368" lon="3.41852">
        <ele>655</ele>
        <time>2025-01-29T09:08:34Z</time>
      </trkpt>
      <trkpt lat="45.55379" lon="3.41856">
        <ele>653</ele>
        <time>2025-01-29T09:08:38Z</time>
      </trkpt>
      <trkpt lat="45.55384" lon="3.41861">
        <ele>651</ele>
        <time>2025-01-29T09:08:40Z</time>
      </trkpt>
      <trkpt lat="45.55388" lon="3.41867">
        <ele>649</ele>
        <time>2025-01-29T09:08:42Z</time>
      </trkpt>
      <trkpt lat="45.55394" lon="3.41873">
        <ele>646</ele>
        <time>2025-01-29T09:08:44Z</time>
      </trkpt>
      <trkpt lat="45.55399" lon="3.4188">
        <ele>643</ele>
        <time>2025-01-29T09:08:46Z</time>
      </trkpt>
      <trkpt lat="45.55403" lon="3.41886">
        <ele>641</ele>
        <time>2025-01-29T09:08:48Z</time>
      </trkpt>
      <trkpt lat="45.55416" lon="3.41908">
        <ele>635</ele>
        <time>2025-01-29T09:08:56Z</time>
      </trkpt>
      <trkpt lat="45.55417" lon="3.41916">
        <ele>635</ele>
        <time>2025-01-29T09:08:58Z</time>
      </trkpt>
      <trkpt lat="45.55421" lon="3.41954">
        <ele>630</ele>
        <time>2025-01-29T09:09:10Z</time>
      </trkpt>
      <trkpt lat="45.55427" lon="3.41983">
        <ele>626</ele>
        <time>2025-01-29T09:09:20Z</time>
      </trkpt>
      <trkpt lat="45.55431" lon="3.41995">
        <ele>624</ele>
        <time>2025-01-29T09:09:24Z</time>
      </trkpt>
      <trkpt lat="45.55435" lon="3.41999">
        <ele>622</ele>
        <time>2025-01-29T09:09:26Z</time>
      </trkpt>
      <trkpt lat="45.5544" lon="3.42023">
        <ele>610</ele>
        <time>2025-01-29T09:09:30Z</time>
      </trkpt>
      <trkpt lat="45.55442" lon="3.42038">
        <ele>603</ele>
        <time>2025-01-29T09:09:34Z</time>
      </trkpt>
      <trkpt lat="45.55438" lon="3.42041">
        <ele>601</ele>
        <time>2025-01-29T09:09:36Z</time>
      </trkpt>
      <trkpt lat="45.55429" lon="3.42107">
        <ele>594</ele>
        <time>2025-01-29T09:09:50Z</time>
      </trkpt>
      <trkpt lat="45.55429" lon="3.42124">
        <ele>592</ele>
        <time>2025-01-29T09:09:52Z</time>
      </trkpt>
      <trkpt lat="45.55432" lon="3.42133">
        <ele>590</ele>
        <time>2025-01-29T09:09:54Z</time>
      </trkpt>
      <trkpt lat="45.55434" lon="3.42143">
        <ele>588</ele>
        <time>2025-01-29T09:09:56Z</time>
      </trkpt>
      <trkpt lat="45.55441" lon="3.42178">
        <ele>583</ele>
        <time>2025-01-29T09:10:02Z</time>
      </trkpt>
      <trkpt lat="45.55442" lon="3.42183">
        <ele>582</ele>
        <time>2025-01-29T09:10:04Z</time>
      </trkpt>
      <trkpt lat="45.55443" lon="3.42208">
        <ele>582</ele>
        <time>2025-01-29T09:10:08Z</time>
      </trkpt>
      <trkpt lat="45.55466" lon="3.42238">
        <ele>581</ele>
        <time>2025-01-29T09:10:16Z</time>
      </trkpt>
      <trkpt lat="45.5547" lon="3.42239">
        <ele>582</ele>
        <time>2025-01-29T09:10:18Z</time>
      </trkpt>
      <trkpt lat="45.55484" lon="3.4224">
        <ele>587</ele>
        <time>2025-01-29T09:10:24Z</time>
      </trkpt>
      <trkpt lat="45.55488" lon="3.4224">
        <ele>590</ele>
        <time>2025-01-29T09:10:26Z</time>
      </trkpt>
      <trkpt lat="45.55492" lon="3.42243">
        <ele>592</ele>
        <time>2025-01-29T09:10:28Z</time>
      </trkpt>
      <trkpt lat="45.55495" lon="3.42247">
        <ele>594</ele>
        <time>2025-01-29T09:10:30Z</time>
      </trkpt>
      <trkpt lat="45.55492" lon="3.42249">
        <ele>594</ele>
        <time>2025-01-29T09:10:32Z</time>
      </trkpt>
      <trkpt lat="45.5547" lon="3.42266">
        <ele>592</ele>
        <time>2025-01-29T09:10:40Z</time>
      </trkpt>
      <trkpt lat="45.55379" lon="3.42316">
        <ele>589</ele>
        <time>2025-01-29T09:11:08Z</time>
      </trkpt>
      <trkpt lat="45.55373" lon="3.42322">
        <ele>589</ele>
        <time>2025-01-29T09:11:10Z</time>
      </trkpt>
      <trkpt lat="45.55358" lon="3.42349">
        <ele>588</ele>
        <time>2025-01-29T09:11:16Z</time>
      </trkpt>
      <trkpt lat="45.5535" lon="3.42372">
        <ele>588</ele>
        <time>2025-01-29T09:11:20Z</time>
      </trkpt>
      <trkpt lat="45.55342" lon="3.42421">
        <ele>588</ele>
        <time>2025-01-29T09:11:28Z</time>
      </trkpt>
      <trkpt lat="45.55345" lon="3.42446">
        <ele>591</ele>
        <time>2025-01-29T09:11:32Z</time>
      </trkpt>
      <trkpt lat="45.55347" lon="3.42458">
        <ele>593</ele>
        <time>2025-01-29T09:11:34Z</time>
      </trkpt>
      <trkpt lat="45.55353" lon="3.42483">
        <ele>597</ele>
        <time>2025-01-29T09:11:38Z</time>
      </trkpt>
      <trkpt lat="45.55367" lon="3.42514">
        <ele>601</ele>
        <time>2025-01-29T09:11:44Z</time>
      </trkpt>
      <trkpt lat="45.55389" lon="3.42555">
        <ele>602</ele>
        <time>2025-01-29T09:11:52Z</time>
      </trkpt>
      <trkpt lat="45.55393" lon="3.42566">
        <ele>603</ele>
        <time>2025-01-29T09:11:54Z</time>
      </trkpt>
      <trkpt lat="45.55395" lon="3.42576">
        <ele>603</ele>
        <time>2025-01-29T09:11:56Z</time>
      </trkpt>
      <trkpt lat="45.55402" lon="3.42646">
        <ele>604</ele>
        <time>2025-01-29T09:12:08Z</time>
      </trkpt>
      <trkpt lat="45.55396" lon="3.42675">
        <ele>604</ele>
        <time>2025-01-29T09:12:14Z</time>
      </trkpt>
      <trkpt lat="45.55335" lon="3.42832">
        <ele>609</ele>
        <time>2025-01-29T09:12:44Z</time>
      </trkpt>
      <trkpt lat="45.55325" lon="3.42865">
        <ele>608</ele>
        <time>2025-01-29T09:12:50Z</time>
      </trkpt>
      <trkpt lat="45.5531" lon="3.42906">
        <ele>613</ele>
        <time>2025-01-29T09:12:58Z</time>
      </trkpt>
      <trkpt lat="45.55307" lon="3.42929">
        <ele>616</ele>
        <time>2025-01-29T09:13:02Z</time>
      </trkpt>
      <trkpt lat="45.55307" lon="3.42942">
        <ele>617</ele>
        <time>2025-01-29T09:13:04Z</time>
      </trkpt>
      <trkpt lat="45.5531" lon="3.42954">
        <ele>617</ele>
        <time>2025-01-29T09:13:06Z</time>
      </trkpt>
      <trkpt lat="45.55327" lon="3.42982">
        <ele>616</ele>
        <time>2025-01-29T09:13:12Z</time>
      </trkpt>
      <trkpt lat="45.5534" lon="3.42996">
        <ele>616</ele>
        <time>2025-01-29T09:13:16Z</time>
      </trkpt>
      <trkpt lat="45.55347" lon="3.43002">
        <ele>616</ele>
        <time>2025-01-29T09:13:18Z</time>
      </trkpt>
      <trkpt lat="45.55351" lon="3.43014">
        <ele>617</ele>
        <time>2025-01-29T09:13:20Z</time>
      </trkpt>
      <trkpt lat="45.55357" lon="3.43024">
        <ele>619</ele>
        <time>2025-01-29T09:13:22Z</time>
      </trkpt>
      <trkpt lat="45.55361" lon="3.43034">
        <ele>622</ele>
        <time>2025-01-29T09:13:24Z</time>
      </trkpt>
      <trkpt lat="45.55361" lon="3.43044">
        <ele>624</ele>
        <time>2025-01-29T09:13:26Z</time>
      </trkpt>
      <trkpt lat="45.55359" lon="3.43086">
        <ele>625</ele>
        <time>2025-01-29T09:13:32Z</time>
      </trkpt>
      <trkpt lat="45.5535" lon="3.43133">
        <ele>621</ele>
        <time>2025-01-29T09:13:40Z</time>
      </trkpt>
      <trkpt lat="45.55346" lon="3.43171">
        <ele>620</ele>
        <time>2025-01-29T09:13:46Z</time>
      </trkpt>
      <trkpt lat="45.55349" lon="3.43202">
        <ele>622</ele>
        <time>2025-01-29T09:13:50Z</time>
      </trkpt>
      <trkpt lat="45.55351" lon="3.43215">
        <ele>622</ele>
        <time>2025-01-29T09:13:52Z</time>
      </trkpt>
      <trkpt lat="45.55383" lon="3.43292">
        <ele>627</ele>
        <time>2025-01-29T09:14:06Z</time>
      </trkpt>
      <trkpt lat="45.55389" lon="3.43307">
        <ele>628</ele>
        <time>2025-01-29T09:14:08Z</time>
      </trkpt>
      <trkpt lat="45.55393" lon="3.4332">
        <ele>629</ele>
        <time>2025-01-29T09:14:10Z</time>
      </trkpt>
      <trkpt lat="45.55395" lon="3.43369">
        <ele>625</ele>
        <time>2025-01-29T09:14:18Z</time>
      </trkpt>
      <trkpt lat="45.55389" lon="3.43402">
        <ele>625</ele>
        <time>2025-01-29T09:14:24Z</time>
      </trkpt>
      <trkpt lat="45.55377" lon="3.43435">
        <ele>627</ele>
        <time>2025-01-29T09:14:30Z</time>
      </trkpt>
      <trkpt lat="45.55348" lon="3.43503">
        <ele>630</ele>
        <time>2025-01-29T09:14:42Z</time>
      </trkpt>
      <trkpt lat="45.55345" lon="3.43528">
        <ele>629</ele>
        <time>2025-01-29T09:14:46Z</time>
      </trkpt>
      <trkpt lat="45.55346" lon="3.43538">
        <ele>629</ele>
        <time>2025-01-29T09:14:48Z</time>
      </trkpt>
      <trkpt lat="45.5535" lon="3.4355">
        <ele>629</ele>
        <time>2025-01-29T09:14:50Z</time>
      </trkpt>
      <trkpt lat="45.55357" lon="3.43561">
        <ele>632</ele>
        <time>2025-01-29T09:14:52Z</time>
      </trkpt>
      <trkpt lat="45.55363" lon="3.43573">
        <ele>634</ele>
        <time>2025-01-29T09:14:54Z</time>
      </trkpt>
      <trkpt lat="45.5537" lon="3.43584">
        <ele>635</ele>
        <time>2025-01-29T09:14:56Z</time>
      </trkpt>
      <trkpt lat="45.55386" lon="3.43604">
        <ele>634</ele>
        <time>2025-01-29T09:15:00Z</time>
      </trkpt>
      <trkpt lat="45.55404" lon="3.43622">
        <ele>633</ele>
        <time>2025-01-29T09:15:04Z</time>
      </trkpt>
      <trkpt lat="45.55412" lon="3.43631">
        <ele>634</ele>
        <time>2025-01-29T09:15:06Z</time>
      </trkpt>
      <trkpt lat="45.5543" lon="3.43671">
        <ele>638</ele>
        <time>2025-01-29T09:15:12Z</time>
      </trkpt>
      <trkpt lat="45.55431" lon="3.43734">
        <ele>636</ele>
        <time>2025-01-29T09:15:20Z</time>
      </trkpt>
      <trkpt lat="45.55423" lon="3.43777">
        <ele>640</ele>
        <time>2025-01-29T09:15:26Z</time>
      </trkpt>
      <trkpt lat="45.55416" lon="3.43792">
        <ele>641</ele>
        <time>2025-01-29T09:15:28Z</time>
      </trkpt>
      <trkpt lat="45.5539" lon="3.43823">
        <ele>636</ele>
        <time>2025-01-29T09:15:34Z</time>
      </trkpt>
      <trkpt lat="45.5527" lon="3.43913">
        <ele>640</ele>
        <time>2025-01-29T09:15:58Z</time>
      </trkpt>
      <trkpt lat="45.55255" lon="3.43937">
        <ele>639</ele>
        <time>2025-01-29T09:16:02Z</time>
      </trkpt>
      <trkpt lat="45.55251" lon="3.43955">
        <ele>637</ele>
        <time>2025-01-29T09:16:04Z</time>
      </trkpt>
      <trkpt lat="45.55257" lon="3.43986">
        <ele>636</ele>
        <time>2025-01-29T09:16:08Z</time>
      </trkpt>
      <trkpt lat="45.55266" lon="3.43998">
        <ele>638</ele>
        <time>2025-01-29T09:16:10Z</time>
      </trkpt>
      <trkpt lat="45.55276" lon="3.44009">
        <ele>641</ele>
        <time>2025-01-29T09:16:12Z</time>
      </trkpt>
      <trkpt lat="45.55303" lon="3.44038">
        <ele>647</ele>
        <time>2025-01-29T09:16:18Z</time>
      </trkpt>
      <trkpt lat="45.55331" lon="3.44058">
        <ele>650</ele>
        <time>2025-01-29T09:16:24Z</time>
      </trkpt>
      <trkpt lat="45.55368" lon="3.44107">
        <ele>650</ele>
        <time>2025-01-29T09:16:34Z</time>
      </trkpt>
      <trkpt lat="45.55393" lon="3.44152">
        <ele>646</ele>
        <time>2025-01-29T09:16:42Z</time>
      </trkpt>
      <trkpt lat="45.55399" lon="3.44183">
        <ele>647</ele>
        <time>2025-01-29T09:16:46Z</time>
      </trkpt>
      <trkpt lat="45.5539" lon="3.44315">
        <ele>653</ele>
        <time>2025-01-29T09:17:04Z</time>
      </trkpt>
      <trkpt lat="45.55384" lon="3.44344">
        <ele>653</ele>
        <time>2025-01-29T09:17:08Z</time>
      </trkpt>
      <trkpt lat="45.55321" lon="3.44452">
        <ele>652</ele>
        <time>2025-01-29T09:17:30Z</time>
      </trkpt>
      <trkpt lat="45.55324" lon="3.44452">
        <ele>653</ele>
        <time>2025-01-29T09:17:32Z</time>
      </trkpt>
      <trkpt lat="45.55331" lon="3.44441">
        <ele>654</ele>
        <time>2025-01-29T09:17:36Z</time>
      </trkpt>
      <trkpt lat="45.55343" lon="3.44432">
        <ele>656</ele>
        <time>2025-01-29T09:17:40Z</time>
      </trkpt>
      <trkpt lat="45.55349" lon="3.44427">
        <ele>658</ele>
        <time>2025-01-29T09:17:42Z</time>
      </trkpt>
      <trkpt lat="45.55355" lon="3.44423">
        <ele>661</ele>
        <time>2025-01-29T09:17:44Z</time>
      </trkpt>
      <trkpt lat="45.5542" lon="3.44391">
        <ele>667</ele>
        <time>2025-01-29T09:18:02Z</time>
      </trkpt>
      <trkpt lat="45.55464" lon="3.44378">
        <ele>663</ele>
        <time>2025-01-29T09:18:16Z</time>
      </trkpt>
      <trkpt lat="45.55471" lon="3.44378">
        <ele>663</ele>
        <time>2025-01-29T09:18:18Z</time>
      </trkpt>
      <trkpt lat="45.55485" lon="3.44378">
        <ele>662</ele>
        <time>2025-01-29T09:18:22Z</time>
      </trkpt>
      <trkpt lat="45.55498" lon="3.44378">
        <ele>661</ele>
        <time>2025-01-29T09:18:26Z</time>
      </trkpt>
      <trkpt lat="45.55525" lon="3.44364">
        <ele>663</ele>
        <time>2025-01-29T09:18:34Z</time>
      </trkpt>
      <trkpt lat="45.5553" lon="3.44361">
        <ele>665</ele>
        <time>2025-01-29T09:18:36Z</time>
      </trkpt>
      <trkpt lat="45.55536" lon="3.44359">
        <ele>666</ele>
        <time>2025-01-29T09:18:38Z</time>
      </trkpt>
      <trkpt lat="45.55544" lon="3.44359">
        <ele>667</ele>
        <time>2025-01-29T09:18:40Z</time>
      </trkpt>
      <trkpt lat="45.55571" lon="3.44364">
        <ele>667</ele>
        <time>2025-01-29T09:18:48Z</time>
      </trkpt>
      <trkpt lat="45.55578" lon="3.44362">
        <ele>667</ele>
        <time>2025-01-29T09:18:50Z</time>
      </trkpt>
      <trkpt lat="45.55583" lon="3.4436">
        <ele>667</ele>
        <time>2025-01-29T09:18:52Z</time>
      </trkpt>
      <trkpt lat="45.55589" lon="3.4436">
        <ele>669</ele>
        <time>2025-01-29T09:18:54Z</time>
      </trkpt>
      <trkpt lat="45.55602" lon="3.44363">
        <ele>671</ele>
        <time>2025-01-29T09:18:58Z</time>
      </trkpt>
      <trkpt lat="45.5561" lon="3.44361">
        <ele>671</ele>
        <time>2025-01-29T09:19:00Z</time>
      </trkpt>
      <trkpt lat="45.55618" lon="3.44358">
        <ele>672</ele>
        <time>2025-01-29T09:19:02Z</time>
      </trkpt>
      <trkpt lat="45.55624" lon="3.44352">
        <ele>673</ele>
        <time>2025-01-29T09:19:04Z</time>
      </trkpt>
      <trkpt lat="45.55629" lon="3.44351">
        <ele>674</ele>
        <time>2025-01-29T09:19:06Z</time>
      </trkpt>
      <trkpt lat="45.55636" lon="3.4435">
        <ele>675</ele>
        <time>2025-01-29T09:19:08Z</time>
      </trkpt>
      <trkpt lat="45.55643" lon="3.44349">
        <ele>676</ele>
        <time>2025-01-29T09:19:10Z</time>
      </trkpt>
      <trkpt lat="45.55657" lon="3.44343">
        <ele>677</ele>
        <time>2025-01-29T09:19:14Z</time>
      </trkpt>
      <trkpt lat="45.55675" lon="3.44335">
        <ele>678</ele>
        <time>2025-01-29T09:19:20Z</time>
      </trkpt>
      <trkpt lat="45.55683" lon="3.44333">
        <ele>677</ele>
        <time>2025-01-29T09:19:22Z</time>
      </trkpt>
      <trkpt lat="45.55711" lon="3.44331">
        <ele>675</ele>
        <time>2025-01-29T09:19:30Z</time>
      </trkpt>
      <trkpt lat="45.55731" lon="3.44333">
        <ele>676</ele>
        <time>2025-01-29T09:19:36Z</time>
      </trkpt>
      <trkpt lat="45.55737" lon="3.44335">
        <ele>676</ele>
        <time>2025-01-29T09:19:38Z</time>
      </trkpt>
      <trkpt lat="45.55742" lon="3.44337">
        <ele>677</ele>
        <time>2025-01-29T09:19:40Z</time>
      </trkpt>
      <trkpt lat="45.55762" lon="3.44342">
        <ele>680</ele>
        <time>2025-01-29T09:19:46Z</time>
      </trkpt>
      <trkpt lat="45.55777" lon="3.4434">
        <ele>684</ele>
        <time>2025-01-29T09:19:50Z</time>
      </trkpt>
      <trkpt lat="45.55788" lon="3.44341">
        <ele>686</ele>
        <time>2025-01-29T09:19:54Z</time>
      </trkpt>
      <trkpt lat="45.55848" lon="3.44358">
        <ele>692</ele>
        <time>2025-01-29T09:20:12Z</time>
      </trkpt>
      <trkpt lat="45.5586" lon="3.44362">
        <ele>695</ele>
        <time>2025-01-29T09:20:16Z</time>
      </trkpt>
      <trkpt lat="45.55864" lon="3.44365">
        <ele>696</ele>
        <time>2025-01-29T09:20:18Z</time>
      </trkpt>
      <trkpt lat="45.5587" lon="3.44365">
        <ele>696</ele>
        <time>2025-01-29T09:20:20Z</time>
      </trkpt>
      <trkpt lat="45.55887" lon="3.44359">
        <ele>698</ele>
        <time>2025-01-29T09:20:26Z</time>
      </trkpt>
      <trkpt lat="45.55925" lon="3.44347">
        <ele>698</ele>
        <time>2025-01-29T09:20:38Z</time>
      </trkpt>
      <trkpt lat="45.55946" lon="3.44343">
        <ele>696</ele>
        <time>2025-01-29T09:20:42Z</time>
      </trkpt>
      <trkpt lat="45.55958" lon="3.44341">
        <ele>694</ele>
        <time>2025-01-29T09:20:44Z</time>
      </trkpt>
      <trkpt lat="45.55972" lon="3.4434">
        <ele>691</ele>
        <time>2025-01-29T09:20:46Z</time>
      </trkpt>
      <trkpt lat="45.56044" lon="3.44335">
        <ele>684</ele>
        <time>2025-01-29T09:20:56Z</time>
      </trkpt>
      <trkpt lat="45.56085" lon="3.44348">
        <ele>683</ele>
        <time>2025-01-29T09:21:02Z</time>
      </trkpt>
      <trkpt lat="45.56107" lon="3.44377">
        <ele>680</ele>
        <time>2025-01-29T09:21:06Z</time>
      </trkpt>
      <trkpt lat="45.56118" lon="3.4439">
        <ele>677</ele>
        <time>2025-01-29T09:21:08Z</time>
      </trkpt>
      <trkpt lat="45.56129" lon="3.44399">
        <ele>675</ele>
        <time>2025-01-29T09:21:10Z</time>
      </trkpt>
      <trkpt lat="45.56143" lon="3.444">
        <ele>673</ele>
        <time>2025-01-29T09:21:12Z</time>
      </trkpt>
      <trkpt lat="45.56211" lon="3.44405">
        <ele>676</ele>
        <time>2025-01-29T09:21:26Z</time>
      </trkpt>
      <trkpt lat="45.56281" lon="3.44426">
        <ele>673</ele>
        <time>2025-01-29T09:21:38Z</time>
      </trkpt>
      <trkpt lat="45.5629" lon="3.44434">
        <ele>671</ele>
        <time>2025-01-29T09:21:40Z</time>
      </trkpt>
      <trkpt lat="45.56305" lon="3.44436">
        <ele>669</ele>
        <time>2025-01-29T09:21:44Z</time>
      </trkpt>
      <trkpt lat="45.56316" lon="3.44435">
        <ele>668</ele>
        <time>2025-01-29T09:21:48Z</time>
      </trkpt>
      <trkpt lat="45.56322" lon="3.44433">
        <ele>667</ele>
        <time>2025-01-29T09:21:50Z</time>
      </trkpt>
      <trkpt lat="45.56327" lon="3.44431">
        <ele>666</ele>
        <time>2025-01-29T09:21:52Z</time>
      </trkpt>
      <trkpt lat="45.56334" lon="3.44424">
        <ele>665</ele>
        <time>2025-01-29T09:21:56Z</time>
      </trkpt>
      <trkpt lat="45.56346" lon="3.44424">
        <ele>665</ele>
        <time>2025-01-29T09:22:00Z</time>
      </trkpt>
      <trkpt lat="45.56365" lon="3.44434">
        <ele>665</ele>
        <time>2025-01-29T09:22:06Z</time>
      </trkpt>
      <trkpt lat="45.56393" lon="3.4446">
        <ele>667</ele>
        <time>2025-01-29T09:22:16Z</time>
      </trkpt>
      <trkpt lat="45.56417" lon="3.44478">
        <ele>666</ele>
        <time>2025-01-29T09:22:22Z</time>
      </trkpt>
      <trkpt lat="45.56454" lon="3.44506">
        <ele>669</ele>
        <time>2025-01-29T09:22:32Z</time>
      </trkpt>
      <trkpt lat="45.56503" lon="3.44536">
        <ele>668</ele>
        <time>2025-01-29T09:22:44Z</time>
      </trkpt>
      <trkpt lat="45.56514" lon="3.44541">
        <ele>666</ele>
        <time>2025-01-29T09:22:46Z</time>
      </trkpt>
      <trkpt lat="45.56521" lon="3.44546">
        <ele>664</ele>
        <time>2025-01-29T09:22:48Z</time>
      </trkpt>
      <trkpt lat="45.5653" lon="3.44551">
        <ele>664</ele>
        <time>2025-01-29T09:22:50Z</time>
      </trkpt>
      <trkpt lat="45.56539" lon="3.44558">
        <ele>663</ele>
        <time>2025-01-29T09:22:52Z</time>
      </trkpt>
      <trkpt lat="45.56564" lon="3.44573">
        <ele>663</ele>
        <time>2025-01-29T09:22:58Z</time>
      </trkpt>
      <trkpt lat="45.56574" lon="3.44577">
        <ele>663</ele>
        <time>2025-01-29T09:23:00Z</time>
      </trkpt>
      <trkpt lat="45.56592" lon="3.44589">
        <ele>663</ele>
        <time>2025-01-29T09:23:04Z</time>
      </trkpt>
      <trkpt lat="45.56607" lon="3.44587">
        <ele>663</ele>
        <time>2025-01-29T09:23:08Z</time>
      </trkpt>
      <trkpt lat="45.56612" lon="3.44588">
        <ele>662</ele>
        <time>2025-01-29T09:23:10Z</time>
      </trkpt>
      <trkpt lat="45.56624" lon="3.44586">
        <ele>663</ele>
        <time>2025-01-29T09:23:14Z</time>
      </trkpt>
      <trkpt lat="45.5663" lon="3.44584">
        <ele>663</ele>
        <time>2025-01-29T09:23:16Z</time>
      </trkpt>
      <trkpt lat="45.56657" lon="3.44587">
        <ele>661</ele>
        <time>2025-01-29T09:23:24Z</time>
      </trkpt>
      <trkpt lat="45.56661" lon="3.44586">
        <ele>660</ele>
        <time>2025-01-29T09:23:26Z</time>
      </trkpt>
      <trkpt lat="45.56662" lon="3.44589">
        <ele>660</ele>
        <time>2025-01-29T09:23:30Z</time>
      </trkpt>
      <trkpt lat="45.56665" lon="3.44588">
        <ele>661</ele>
        <time>2025-01-29T09:24:24Z</time>
      </trkpt>
      <trkpt lat="45.56669" lon="3.44589">
        <ele>663</ele>
        <time>2025-01-29T09:24:26Z</time>
      </trkpt>
      <trkpt lat="45.56669" lon="3.44592">
        <ele>663</ele>
        <time>2025-01-29T09:24:28Z</time>
      </trkpt>
      <trkpt lat="45.56672" lon="3.44594">
        <ele>664</ele>
        <time>2025-01-29T09:24:32Z</time>
      </trkpt>
      <trkpt lat="45.56705" lon="3.44573">
        <ele>666</ele>
        <time>2025-01-29T09:24:42Z</time>
      </trkpt>
      <trkpt lat="45.56712" lon="3.4457">
        <ele>667</ele>
        <time>2025-01-29T09:24:44Z</time>
      </trkpt>
      <trkpt lat="45.56737" lon="3.44567">
        <ele>667</ele>
        <time>2025-01-29T09:24:48Z</time>
      </trkpt>
      <trkpt lat="45.56753" lon="3.44569">
        <ele>664</ele>
        <time>2025-01-29T09:24:50Z</time>
      </trkpt>
      <trkpt lat="45.56789" lon="3.4458">
        <ele>660</ele>
        <time>2025-01-29T09:24:54Z</time>
      </trkpt>
      <trkpt lat="45.56806" lon="3.44576">
        <ele>657</ele>
        <time>2025-01-29T09:24:56Z</time>
      </trkpt>
      <trkpt lat="45.56824" lon="3.44568">
        <ele>653</ele>
        <time>2025-01-29T09:24:58Z</time>
      </trkpt>
      <trkpt lat="45.5684" lon="3.4456">
        <ele>649</ele>
        <time>2025-01-29T09:25:00Z</time>
      </trkpt>
      <trkpt lat="45.56857" lon="3.44554">
        <ele>647</ele>
        <time>2025-01-29T09:25:02Z</time>
      </trkpt>
      <trkpt lat="45.56877" lon="3.44548">
        <ele>644</ele>
        <time>2025-01-29T09:25:04Z</time>
      </trkpt>
      <trkpt lat="45.56913" lon="3.44543">
        <ele>640</ele>
        <time>2025-01-29T09:25:08Z</time>
      </trkpt>
      <trkpt lat="45.56928" lon="3.44549">
        <ele>639</ele>
        <time>2025-01-29T09:25:10Z</time>
      </trkpt>
      <trkpt lat="45.5694" lon="3.44557">
        <ele>638</ele>
        <time>2025-01-29T09:25:12Z</time>
      </trkpt>
      <trkpt lat="45.56952" lon="3.44569">
        <ele>636</ele>
        <time>2025-01-29T09:25:14Z</time>
      </trkpt>
      <trkpt lat="45.56963" lon="3.44591">
        <ele>634</ele>
        <time>2025-01-29T09:25:16Z</time>
      </trkpt>
      <trkpt lat="45.56971" lon="3.4461">
        <ele>631</ele>
        <time>2025-01-29T09:25:18Z</time>
      </trkpt>
      <trkpt lat="45.56979" lon="3.44624">
        <ele>629</ele>
        <time>2025-01-29T09:25:20Z</time>
      </trkpt>
      <trkpt lat="45.57009" lon="3.4466">
        <ele>625</ele>
        <time>2025-01-29T09:25:30Z</time>
      </trkpt>
      <trkpt lat="45.5702" lon="3.44659">
        <ele>625</ele>
        <time>2025-01-29T09:25:32Z</time>
      </trkpt>
      <trkpt lat="45.57086" lon="3.44644">
        <ele>621</ele>
        <time>2025-01-29T09:25:40Z</time>
      </trkpt>
      <trkpt lat="45.57135" lon="3.44635">
        <ele>616</ele>
        <time>2025-01-29T09:25:46Z</time>
      </trkpt>
      <trkpt lat="45.57176" lon="3.44616">
        <ele>613</ele>
        <time>2025-01-29T09:25:52Z</time>
      </trkpt>
      <trkpt lat="45.57191" lon="3.44608">
        <ele>611</ele>
        <time>2025-01-29T09:25:54Z</time>
      </trkpt>
      <trkpt lat="45.57246" lon="3.44582">
        <ele>606</ele>
        <time>2025-01-29T09:26:00Z</time>
      </trkpt>
      <trkpt lat="45.57333" lon="3.44572">
        <ele>605</ele>
        <time>2025-01-29T09:26:10Z</time>
      </trkpt>
      <trkpt lat="45.57338" lon="3.44565">
        <ele>606</ele>
        <time>2025-01-29T09:26:12Z</time>
      </trkpt>
      <trkpt lat="45.57337" lon="3.44518">
        <ele>607</ele>
        <time>2025-01-29T09:26:18Z</time>
      </trkpt>
      <trkpt lat="45.57335" lon="3.44487">
        <ele>607</ele>
        <time>2025-01-29T09:26:22Z</time>
      </trkpt>
      <trkpt lat="45.57302" lon="3.44388">
        <ele>609</ele>
        <time>2025-01-29T09:26:36Z</time>
      </trkpt>
      <trkpt lat="45.57299" lon="3.44375">
        <ele>610</ele>
        <time>2025-01-29T09:26:38Z</time>
      </trkpt>
      <trkpt lat="45.57299" lon="3.44363">
        <ele>611</ele>
        <time>2025-01-29T09:26:40Z</time>
      </trkpt>
      <trkpt lat="45.57302" lon="3.4435">
        <ele>611</ele>
        <time>2025-01-29T09:26:42Z</time>
      </trkpt>
      <trkpt lat="45.57307" lon="3.44339">
        <ele>612</ele>
        <time>2025-01-29T09:26:44Z</time>
      </trkpt>
      <trkpt lat="45.57322" lon="3.44328">
        <ele>614</ele>
        <time>2025-01-29T09:26:48Z</time>
      </trkpt>
      <trkpt lat="45.57407" lon="3.44294">
        <ele>621</ele>
        <time>2025-01-29T09:27:08Z</time>
      </trkpt>
      <trkpt lat="45.57463" lon="3.44257">
        <ele>626</ele>
        <time>2025-01-29T09:27:22Z</time>
      </trkpt>
      <trkpt lat="45.57481" lon="3.44254">
        <ele>628</ele>
        <time>2025-01-29T09:27:26Z</time>
      </trkpt>
      <trkpt lat="45.57514" lon="3.44266">
        <ele>629</ele>
        <time>2025-01-29T09:27:34Z</time>
      </trkpt>
      <trkpt lat="45.57524" lon="3.44267">
        <ele>629</ele>
        <time>2025-01-29T09:27:36Z</time>
      </trkpt>
      <trkpt lat="45.57542" lon="3.44264">
        <ele>629</ele>
        <time>2025-01-29T09:27:40Z</time>
      </trkpt>
      <trkpt lat="45.57568" lon="3.44251">
        <ele>631</ele>
        <time>2025-01-29T09:27:46Z</time>
      </trkpt>
      <trkpt lat="45.57585" lon="3.44237">
        <ele>634</ele>
        <time>2025-01-29T09:27:50Z</time>
      </trkpt>
      <trkpt lat="45.57621" lon="3.44192">
        <ele>639</ele>
        <time>2025-01-29T09:28:00Z</time>
      </trkpt>
      <trkpt lat="45.57646" lon="3.4419">
        <ele>641</ele>
        <time>2025-01-29T09:28:06Z</time>
      </trkpt>
      <trkpt lat="45.57655" lon="3.44191">
        <ele>641</ele>
        <time>2025-01-29T09:28:08Z</time>
      </trkpt>
      <trkpt lat="45.57686" lon="3.44187">
        <ele>642</ele>
        <time>2025-01-29T09:28:14Z</time>
      </trkpt>
      <trkpt lat="45.57704" lon="3.44177">
        <ele>641</ele>
        <time>2025-01-29T09:28:18Z</time>
      </trkpt>
      <trkpt lat="45.57814" lon="3.44042">
        <ele>647</ele>
        <time>2025-01-29T09:28:48Z</time>
      </trkpt>
      <trkpt lat="45.57867" lon="3.43936">
        <ele>651</ele>
        <time>2025-01-29T09:29:06Z</time>
      </trkpt>
      <trkpt lat="45.57904" lon="3.43834">
        <ele>651</ele>
        <time>2025-01-29T09:29:20Z</time>
      </trkpt>
      <trkpt lat="45.58048" lon="3.43584">
        <ele>645</ele>
        <time>2025-01-29T09:29:50Z</time>
      </trkpt>
      <trkpt lat="45.58212" lon="3.43373">
        <ele>642</ele>
        <time>2025-01-29T09:30:20Z</time>
      </trkpt>
      <trkpt lat="45.58238" lon="3.43332">
        <ele>642</ele>
        <time>2025-01-29T09:30:26Z</time>
      </trkpt>
      <trkpt lat="45.58249" lon="3.43299">
        <ele>642</ele>
        <time>2025-01-29T09:30:30Z</time>
      </trkpt>
      <trkpt lat="45.58248" lon="3.43261">
        <ele>642</ele>
        <time>2025-01-29T09:30:34Z</time>
      </trkpt>
      <trkpt lat="45.58236" lon="3.43081">
        <ele>645</ele>
        <time>2025-01-29T09:30:54Z</time>
      </trkpt>
      <trkpt lat="45.58238" lon="3.43042">
        <ele>644</ele>
        <time>2025-01-29T09:30:58Z</time>
      </trkpt>
      <trkpt lat="45.58247" lon="3.42997">
        <ele>644</ele>
        <time>2025-01-29T09:31:02Z</time>
      </trkpt>
      <trkpt lat="45.58278" lon="3.42923">
        <ele>640</ele>
        <time>2025-01-29T09:31:08Z</time>
      </trkpt>
      <trkpt lat="45.58321" lon="3.42855">
        <ele>634</ele>
        <time>2025-01-29T09:31:14Z</time>
      </trkpt>
      <trkpt lat="45.58333" lon="3.42829">
        <ele>633</ele>
        <time>2025-01-29T09:31:16Z</time>
      </trkpt>
      <trkpt lat="45.5838" lon="3.42459">
        <ele>627</ele>
        <time>2025-01-29T09:31:46Z</time>
      </trkpt>
      <trkpt lat="45.58392" lon="3.42266">
        <ele>623</ele>
        <time>2025-01-29T09:32:04Z</time>
      </trkpt>
      <trkpt lat="45.58402" lon="3.42205">
        <ele>623</ele>
        <time>2025-01-29T09:32:10Z</time>
      </trkpt>
      <trkpt lat="45.58378" lon="3.41963">
        <ele>632</ele>
        <time>2025-01-29T09:32:40Z</time>
      </trkpt>
      <trkpt lat="45.58354" lon="3.41755">
        <ele>632</ele>
        <time>2025-01-29T09:33:06Z</time>
      </trkpt>
      <trkpt lat="45.58314" lon="3.41566">
        <ele>632</ele>
        <time>2025-01-29T09:33:30Z</time>
      </trkpt>
      <trkpt lat="45.58281" lon="3.41295">
        <ele>622</ele>
        <time>2025-01-29T09:33:56Z</time>
      </trkpt>
      <trkpt lat="45.58265" lon="3.41256">
        <ele>620</ele>
        <time>2025-01-29T09:34:00Z</time>
      </trkpt>
      <trkpt lat="45.58218" lon="3.41201">
        <ele>616</ele>
        <time>2025-01-29T09:34:14Z</time>
      </trkpt>
      <trkpt lat="45.58207" lon="3.41195">
        <ele>614</ele>
        <time>2025-01-29T09:34:18Z</time>
      </trkpt>
      <trkpt lat="45.582" lon="3.41188">
        <ele>612</ele>
        <time>2025-01-29T09:34:20Z</time>
      </trkpt>
      <trkpt lat="45.58178" lon="3.4115">
        <ele>609</ele>
        <time>2025-01-29T09:34:26Z</time>
      </trkpt>
      <trkpt lat="45.58092" lon="3.41024">
        <ele>601</ele>
        <time>2025-01-29T09:34:44Z</time>
      </trkpt>
      <trkpt lat="45.57937" lon="3.40939">
        <ele>604</ele>
        <time>2025-01-29T09:35:14Z</time>
      </trkpt>
      <trkpt lat="45.57818" lon="3.40891">
        <ele>601</ele>
        <time>2025-01-29T09:35:36Z</time>
      </trkpt>
      <trkpt lat="45.57777" lon="3.40845">
        <ele>602</ele>
        <time>2025-01-29T09:35:46Z</time>
      </trkpt>
      <trkpt lat="45.57748" lon="3.40773">
        <ele>598</ele>
        <time>2025-01-29T09:35:58Z</time>
      </trkpt>
      <trkpt lat="45.5773" lon="3.40748">
        <ele>596</ele>
        <time>2025-01-29T09:36:02Z</time>
      </trkpt>
      <trkpt lat="45.57664" lon="3.40693">
        <ele>589</ele>
        <time>2025-01-29T09:36:12Z</time>
      </trkpt>
      <trkpt lat="45.57653" lon="3.40674">
        <ele>587</ele>
        <time>2025-01-29T09:36:14Z</time>
      </trkpt>
      <trkpt lat="45.57643" lon="3.40652">
        <ele>585</ele>
        <time>2025-01-29T09:36:16Z</time>
      </trkpt>
      <trkpt lat="45.57621" lon="3.40584">
        <ele>579</ele>
        <time>2025-01-29T09:36:22Z</time>
      </trkpt>
      <trkpt lat="45.57614" lon="3.40541">
        <ele>575</ele>
        <time>2025-01-29T09:36:26Z</time>
      </trkpt>
      <trkpt lat="45.57611" lon="3.40529">
        <ele>573</ele>
        <time>2025-01-29T09:36:28Z</time>
      </trkpt>
      <trkpt lat="45.57609" lon="3.40526">
        <ele>572</ele>
        <time>2025-01-29T09:36:30Z</time>
      </trkpt>
      <trkpt lat="45.5761" lon="3.40519">
        <ele>571</ele>
        <time>2025-01-29T09:36:32Z</time>
      </trkpt>
      <trkpt lat="45.57699" lon="3.40321">
        <ele>570</ele>
        <time>2025-01-29T09:37:02Z</time>
      </trkpt>
      <trkpt lat="45.57734" lon="3.40255">
        <ele>572</ele>
        <time>2025-01-29T09:37:14Z</time>
      </trkpt>
      <trkpt lat="45.57737" lon="3.40252">
        <ele>572</ele>
        <time>2025-01-29T09:37:16Z</time>
      </trkpt>
      <trkpt lat="45.57817" lon="3.40207">
        <ele>575</ele>
        <time>2025-01-29T09:37:34Z</time>
      </trkpt>
      <trkpt lat="45.57823" lon="3.40203">
        <ele>575</ele>
        <time>2025-01-29T09:37:36Z</time>
      </trkpt>
      <trkpt lat="45.57833" lon="3.40066">
        <ele>584</ele>
        <time>2025-01-29T09:38:04Z</time>
      </trkpt>
      <trkpt lat="45.57832" lon="3.40057">
        <ele>585</ele>
        <time>2025-01-29T09:38:06Z</time>
      </trkpt>
      <trkpt lat="45.57828" lon="3.40051">
        <ele>586</ele>
        <time>2025-01-29T09:38:08Z</time>
      </trkpt>
      <trkpt lat="45.57784" lon="3.40043">
        <ele>589</ele>
        <time>2025-01-29T09:38:20Z</time>
      </trkpt>
      <trkpt lat="45.57754" lon="3.40041">
        <ele>590</ele>
        <time>2025-01-29T09:38:28Z</time>
      </trkpt>
      <trkpt lat="45.57697" lon="3.40021">
        <ele>592</ele>
        <time>2025-01-29T09:38:44Z</time>
      </trkpt>
      <trkpt lat="45.57665" lon="3.40006">
        <ele>593</ele>
        <time>2025-01-29T09:38:54Z</time>
      </trkpt>
      <trkpt lat="45.57629" lon="3.39997">
        <ele>592</ele>
        <time>2025-01-29T09:39:04Z</time>
      </trkpt>
      <trkpt lat="45.57514" lon="3.40012">
        <ele>596</ele>
        <time>2025-01-29T09:39:34Z</time>
      </trkpt>
      <trkpt lat="45.57477" lon="3.4001">
        <ele>596</ele>
        <time>2025-01-29T09:39:42Z</time>
      </trkpt>
      <trkpt lat="45.57434" lon="3.39998">
        <ele>596</ele>
        <time>2025-01-29T09:39:52Z</time>
      </trkpt>
      <trkpt lat="45.57424" lon="3.39995">
        <ele>596</ele>
        <time>2025-01-29T09:39:54Z</time>
      </trkpt>
      <trkpt lat="45.57416" lon="3.39995">
        <ele>596</ele>
        <time>2025-01-29T09:39:56Z</time>
      </trkpt>
      <trkpt lat="45.57399" lon="3.39997">
        <ele>597</ele>
        <time>2025-01-29T09:40:00Z</time>
      </trkpt>
      <trkpt lat="45.57383" lon="3.40004">
        <ele>599</ele>
        <time>2025-01-29T09:40:04Z</time>
      </trkpt>
      <trkpt lat="45.57366" lon="3.40006">
        <ele>601</ele>
        <time>2025-01-29T09:40:08Z</time>
      </trkpt>
      <trkpt lat="45.57349" lon="3.40002">
        <ele>603</ele>
        <time>2025-01-29T09:40:12Z</time>
      </trkpt>
      <trkpt lat="45.57336" lon="3.39991">
        <ele>604</ele>
        <time>2025-01-29T09:40:16Z</time>
      </trkpt>
      <trkpt lat="45.57322" lon="3.39975">
        <ele>604</ele>
        <time>2025-01-29T09:40:20Z</time>
      </trkpt>
      <trkpt lat="45.57313" lon="3.3997">
        <ele>603</ele>
        <time>2025-01-29T09:40:22Z</time>
      </trkpt>
      <trkpt lat="45.57283" lon="3.39976">
        <ele>599</ele>
        <time>2025-01-29T09:40:28Z</time>
      </trkpt>
      <trkpt lat="45.57172" lon="3.40011">
        <ele>591</ele>
        <time>2025-01-29T09:40:52Z</time>
      </trkpt>
      <trkpt lat="45.57165" lon="3.40011">
        <ele>591</ele>
        <time>2025-01-29T09:40:54Z</time>
      </trkpt>
      <trkpt lat="45.57157" lon="3.39992">
        <ele>593</ele>
        <time>2025-01-29T09:40:58Z</time>
      </trkpt>
      <trkpt lat="45.57146" lon="3.39946">
        <ele>592</ele>
        <time>2025-01-29T09:41:08Z</time>
      </trkpt>
      <trkpt lat="45.57148" lon="3.39929">
        <ele>591</ele>
        <time>2025-01-29T09:41:34Z</time>
      </trkpt>
      <trkpt lat="45.57144" lon="3.39908">
        <ele>589</ele>
        <time>2025-01-29T09:41:38Z</time>
      </trkpt>
      <trkpt lat="45.57141" lon="3.39809">
        <ele>580</ele>
        <time>2025-01-29T09:41:54Z</time>
      </trkpt>
      <trkpt lat="45.57137" lon="3.39795">
        <ele>579</ele>
        <time>2025-01-29T09:41:56Z</time>
      </trkpt>
      <trkpt lat="45.57114" lon="3.39699">
        <ele>566</ele>
        <time>2025-01-29T09:42:12Z</time>
      </trkpt>
      <trkpt lat="45.57114" lon="3.39692">
        <ele>566</ele>
        <time>2025-01-29T09:42:14Z</time>
      </trkpt>
      <trkpt lat="45.57116" lon="3.39686">
        <ele>566</ele>
        <time>2025-01-29T09:42:16Z</time>
      </trkpt>
      <trkpt lat="45.57114" lon="3.39681">
        <ele>565</ele>
        <time>2025-01-29T09:42:18Z</time>
      </trkpt>
      <trkpt lat="45.57117" lon="3.39663">
        <ele>559</ele>
        <time>2025-01-29T09:42:24Z</time>
      </trkpt>
      <trkpt lat="45.5712" lon="3.39657">
        <ele>557</ele>
        <time>2025-01-29T09:42:26Z</time>
      </trkpt>
      <trkpt lat="45.57129" lon="3.3965">
        <ele>554</ele>
        <time>2025-01-29T09:42:30Z</time>
      </trkpt>
      <trkpt lat="45.57146" lon="3.39627">
        <ele>549</ele>
        <time>2025-01-29T09:42:48Z</time>
      </trkpt>
      <trkpt lat="45.57151" lon="3.39605">
        <ele>550</ele>
        <time>2025-01-29T09:43:04Z</time>
      </trkpt>
      <trkpt lat="45.57159" lon="3.39586">
        <ele>549</ele>
        <time>2025-01-29T09:43:12Z</time>
      </trkpt>
      <trkpt lat="45.57161" lon="3.39582">
        <ele>548</ele>
        <time>2025-01-29T09:43:14Z</time>
      </trkpt>
      <trkpt lat="45.5717" lon="3.39558">
        <ele>543</ele>
        <time>2025-01-29T09:43:32Z</time>
      </trkpt>
      <trkpt lat="45.57172" lon="3.39551">
        <ele>542</ele>
        <time>2025-01-29T09:43:34Z</time>
      </trkpt>
      <trkpt lat="45.57172" lon="3.3954">
        <ele>540</ele>
        <time>2025-01-29T09:43:38Z</time>
      </trkpt>
      <trkpt lat="45.57171" lon="3.39533">
        <ele>539</ele>
        <time>2025-01-29T09:43:40Z</time>
      </trkpt>
      <trkpt lat="45.57159" lon="3.39516">
        <ele>536</ele>
        <time>2025-01-29T09:43:46Z</time>
      </trkpt>
      <trkpt lat="45.57133" lon="3.39488">
        <ele>534</ele>
        <time>2025-01-29T09:43:54Z</time>
      </trkpt>
      <trkpt lat="45.57124" lon="3.39481">
        <ele>533</ele>
        <time>2025-01-29T09:43:56Z</time>
      </trkpt>
      <trkpt lat="45.57104" lon="3.39458">
        <ele>530</ele>
        <time>2025-01-29T09:44:00Z</time>
      </trkpt>
      <trkpt lat="45.57087" lon="3.39426">
        <ele>528</ele>
        <time>2025-01-29T09:44:04Z</time>
      </trkpt>
      <trkpt lat="45.57075" lon="3.39389">
        <ele>527</ele>
        <time>2025-01-29T09:44:08Z</time>
      </trkpt>
      <trkpt lat="45.57053" lon="3.3936">
        <ele>526</ele>
        <time>2025-01-29T09:44:12Z</time>
      </trkpt>
      <trkpt lat="45.57027" lon="3.39336">
        <ele>524</ele>
        <time>2025-01-29T09:44:16Z</time>
      </trkpt>
      <trkpt lat="45.57015" lon="3.3932">
        <ele>523</ele>
        <time>2025-01-29T09:44:18Z</time>
      </trkpt>
      <trkpt lat="45.57001" lon="3.39276">
        <ele>522</ele>
        <time>2025-01-29T09:44:22Z</time>
      </trkpt>
      <trkpt lat="45.5692" lon="3.39168">
        <ele>517</ele>
        <time>2025-01-29T09:44:36Z</time>
      </trkpt>
      <trkpt lat="45.56755" lon="3.38982">
        <ele>509</ele>
        <time>2025-01-29T09:45:06Z</time>
      </trkpt>
      <trkpt lat="45.56657" lon="3.38832">
        <ele>507</ele>
        <time>2025-01-29T09:45:28Z</time>
      </trkpt>
      <trkpt lat="45.56614" lon="3.38792">
        <ele>505</ele>
        <time>2025-01-29T09:45:36Z</time>
      </trkpt>
      <trkpt lat="45.56578" lon="3.3871">
        <ele>503</ele>
        <time>2025-01-29T09:45:46Z</time>
      </trkpt>
      <trkpt lat="45.56535" lon="3.38667">
        <ele>501</ele>
        <time>2025-01-29T09:45:54Z</time>
      </trkpt>
      <trkpt lat="45.56449" lon="3.38604">
        <ele>498</ele>
        <time>2025-01-29T09:46:08Z</time>
      </trkpt>
      <trkpt lat="45.56281" lon="3.3843">
        <ele>491</ele>
        <time>2025-01-29T09:46:38Z</time>
      </trkpt>
      <trkpt lat="45.56212" lon="3.38358">
        <ele>486</ele>
        <time>2025-01-29T09:46:50Z</time>
      </trkpt>
      <trkpt lat="45.56147" lon="3.38263">
        <ele>483</ele>
        <time>2025-01-29T09:47:04Z</time>
      </trkpt>
      <trkpt lat="45.56043" lon="3.38193">
        <ele>482</ele>
        <time>2025-01-29T09:47:22Z</time>
      </trkpt>
      <trkpt lat="45.55913" lon="3.38149">
        <ele>485</ele>
        <time>2025-01-29T09:47:44Z</time>
      </trkpt>
      <trkpt lat="45.5587" lon="3.38123">
        <ele>485</ele>
        <time>2025-01-29T09:47:52Z</time>
      </trkpt>
      <trkpt lat="45.55839" lon="3.381">
        <ele>486</ele>
        <time>2025-01-29T09:47:58Z</time>
      </trkpt>
      <trkpt lat="45.55749" lon="3.38052">
        <ele>486</ele>
        <time>2025-01-29T09:48:14Z</time>
      </trkpt>
      <trkpt lat="45.55707" lon="3.38019">
        <ele>485</ele>
        <time>2025-01-29T09:48:22Z</time>
      </trkpt>
      <trkpt lat="45.55601" lon="3.37966">
        <ele>487</ele>
        <time>2025-01-29T09:48:40Z</time>
      </trkpt>
      <trkpt lat="45.55513" lon="3.37899">
        <ele>484</ele>
        <time>2025-01-29T09:48:56Z</time>
      </trkpt>
      <trkpt lat="45.5544" lon="3.37866">
        <ele>484</ele>
        <time>2025-01-29T09:49:08Z</time>
      </trkpt>
      <trkpt lat="45.55416" lon="3.37845">
        <ele>482</ele>
        <time>2025-01-29T09:49:12Z</time>
      </trkpt>
      <trkpt lat="45.55267" lon="3.37653">
        <ele>473</ele>
        <time>2025-01-29T09:49:38Z</time>
      </trkpt>
      <trkpt lat="45.55248" lon="3.37635">
        <ele>474</ele>
        <time>2025-01-29T09:49:42Z</time>
      </trkpt>
      <trkpt lat="45.55238" lon="3.3764">
        <ele>475</ele>
        <time>2025-01-29T09:49:44Z</time>
      </trkpt>
      <trkpt lat="45.55231" lon="3.37669">
        <ele>474</ele>
        <time>2025-01-29T09:49:48Z</time>
      </trkpt>
      <trkpt lat="45.55225" lon="3.37675">
        <ele>473</ele>
        <time>2025-01-29T09:49:50Z</time>
      </trkpt>
      <trkpt lat="45.55219" lon="3.37667">
        <ele>473</ele>
        <time>2025-01-29T09:49:52Z</time>
      </trkpt>
      <trkpt lat="45.55197" lon="3.37575">
        <ele>470</ele>
        <time>2025-01-29T09:50:02Z</time>
      </trkpt>
      <trkpt lat="45.55192" lon="3.37562">
        <ele>469</ele>
        <time>2025-01-29T09:50:04Z</time>
      </trkpt>
      <trkpt lat="45.55129" lon="3.37564">
        <ele>466</ele>
        <time>2025-01-29T09:50:16Z</time>
      </trkpt>
      <trkpt lat="45.55113" lon="3.37556">
        <ele>464</ele>
        <time>2025-01-29T09:50:18Z</time>
      </trkpt>
      <trkpt lat="45.55101" lon="3.37536">
        <ele>462</ele>
        <time>2025-01-29T09:50:20Z</time>
      </trkpt>
      <trkpt lat="45.55087" lon="3.37524">
        <ele>459</ele>
        <time>2025-01-29T09:50:22Z</time>
      </trkpt>
      <trkpt lat="45.55067" lon="3.37526">
        <ele>457</ele>
        <time>2025-01-29T09:50:24Z</time>
      </trkpt>
      <trkpt lat="45.55031" lon="3.37531">
        <ele>453</ele>
        <time>2025-01-29T09:50:28Z</time>
      </trkpt>
      <trkpt lat="45.55022" lon="3.3753">
        <ele>453</ele>
        <time>2025-01-29T09:50:30Z</time>
      </trkpt>
      <trkpt lat="45.55017" lon="3.37523">
        <ele>452</ele>
        <time>2025-01-29T09:50:32Z</time>
      </trkpt>
      <trkpt lat="45.55014" lon="3.37513">
        <ele>452</ele>
        <time>2025-01-29T09:50:34Z</time>
      </trkpt>
      <trkpt lat="45.55012" lon="3.37469">
        <ele>452</ele>
        <time>2025-01-29T09:50:40Z</time>
      </trkpt>
      <trkpt lat="45.55004" lon="3.37427">
        <ele>452</ele>
        <time>2025-01-29T09:50:46Z</time>
      </trkpt>
      <trkpt lat="45.55005" lon="3.37415">
        <ele>451</ele>
        <time>2025-01-29T09:50:48Z</time>
      </trkpt>
      <trkpt lat="45.55014" lon="3.37408">
        <ele>451</ele>
        <time>2025-01-29T09:50:50Z</time>
      </trkpt>
      <trkpt lat="45.55036" lon="3.37411">
        <ele>451</ele>
        <time>2025-01-29T09:50:54Z</time>
      </trkpt>
      <trkpt lat="45.55046" lon="3.37412">
        <ele>451</ele>
        <time>2025-01-29T09:50:56Z</time>
      </trkpt>
      <trkpt lat="45.55053" lon="3.37405">
        <ele>451</ele>
        <time>2025-01-29T09:50:58Z</time>
      </trkpt>
      <trkpt lat="45.55056" lon="3.37397">
        <ele>451</ele>
        <time>2025-01-29T09:51:00Z</time>
      </trkpt>
      <trkpt lat="45.55056" lon="3.37389">
        <ele>450</ele>
        <time>2025-01-29T09:51:02Z</time>
      </trkpt>
      <trkpt lat="45.55052" lon="3.37384">
        <ele>451</ele>
        <time>2025-01-29T09:52:04Z</time>
      </trkpt>
    </trkseg>
  </trk>
</gpx>